SHARE
TWEET

gps_log.csv

a guest Sep 18th, 2019 96 Never
Not a member of Pastebin yet? Sign Up, it unlocks many cool features!
  1. time,lat,lon,elevation,accuracy,bearing,speed,satellites,provider,hdop,vdop,pdop,geoidheight,ageofdgpsdata,dgpsid,activity,battery,annotation
  2. 2019-09-14T11:32:04.773Z,43.8022511,11.2001927,0.0,21.378,,0.0,0,gps,99.0,99.0,140.0,,,,,62,
  3. 2019-09-14T11:32:34.999Z,43.80223697052953,11.200300082837137,90.56855010986328,4.0,89.94337,0.0,15,gps,0.9,1.5,1.8,46.8,,,,62,
  4. 2019-09-14T11:33:04.999Z,43.80223697052953,11.200300082837137,93.44791412353516,4.0,89.98264,0.0,23,gps,0.9,1.4,1.6,46.8,,,,62,
  5. 2019-09-14T11:33:35.999Z,43.80223697052953,11.200300082837137,94.05298614501953,4.0,89.99389,0.0,23,gps,0.8,1.5,1.7,46.8,,,,62,
  6. 2019-09-14T11:34:06.999Z,43.80223697052953,11.200300082837137,94.24871063232422,6.0,89.998535,0.0,23,gps,1.0,1.8,2.0,46.8,,,,62,
  7. 2019-09-14T11:34:36.999Z,43.80223697052953,11.200300082837137,94.32455444335938,4.0,90.08606,0.0,22,gps,0.9,1.4,1.6,46.8,,,,62,
  8. 2019-09-14T11:35:07.999Z,43.80223697052953,11.200300082837137,94.6607894897461,4.0,90.05073,0.0,21,gps,0.9,1.5,1.8,46.8,,,,61,
  9. 2019-09-14T11:35:38.999Z,43.80223697052953,11.200300082837137,93.59136962890625,2.0,134.76132,0.0,22,gps,1.0,1.5,1.8,46.8,,,,61,
  10. 2019-09-14T11:36:08.999Z,43.80223697052953,11.200300082837137,93.60064697265625,3.0,115.363754,0.0,22,gps,1.0,1.7,2.0,46.8,,,,61,
  11. 2019-09-14T11:36:38.999Z,43.80250178266384,11.200225168271542,94.40591075000333,3.0,334.5645,2.633376,23,gps,1.0,2.0,2.2,46.8,,,,61,
  12. 2019-09-14T11:37:09.999Z,43.80290041259625,11.199897813259284,93.99563485305549,3.0,347.8151,0.0726791,23,gps,0.9,1.2,1.5,46.8,,,,61,
  13. 2019-09-14T11:37:40.999Z,43.80283486704867,11.199778098228467,94.03039274165344,3.0,211.02618,0.44326022,23,gps,0.9,1.7,2.0,46.8,,,,61,
  14. 2019-09-14T11:38:11.999Z,43.80282259494763,11.199725798867847,95.97702026367188,2.0,267.8468,0.35208842,23,gps,0.8,1.3,1.6,46.8,,,,61,
  15. 2019-09-14T11:38:41.999Z,43.80282446291314,11.199709081712953,95.86592864990234,2.0,234.80418,0.0,23,gps,0.8,1.2,1.4,46.8,,,,61,
  16. 2019-09-14T11:39:12.999Z,43.80282303631959,11.199677226399462,96.31979370117188,6.0,228.8535,0.0,22,gps,0.8,1.3,1.5,46.8,,,,60,
  17. 2019-09-14T11:39:42.999Z,43.802813080362036,11.199602448205162,96.01850891113281,6.0,251.81111,0.8194233,23,gps,1.2,1.5,1.9,46.8,,,,60,
  18. 2019-09-14T11:40:13.999Z,43.80282806322093,11.199613015045845,96.18516540527344,8.0,348.25336,0.0,23,gps,0.8,1.0,1.3,46.8,,,,60,
  19. 2019-09-14T11:40:44.999Z,43.80290140616103,11.199662423948416,96.25498962402344,6.0,342.17004,0.0,20,gps,0.8,1.3,1.6,46.8,,,,60,
  20. 2019-09-14T11:41:14.999Z,43.80290787085238,11.199622702548178,96.30746459960938,8.0,288.09064,0.0,20,gps,0.8,1.3,1.5,46.8,,,,60,
  21. 2019-09-14T11:41:45.999Z,43.80290787085238,11.199622702548178,96.03304290771484,6.0,291.25427,0.0,23,gps,0.9,1.4,1.7,46.8,,,,60,
  22. 2019-09-14T11:42:15.999Z,43.80290787085238,11.199622702548178,96.2330322265625,8.0,292.302,0.0,21,gps,0.8,1.2,1.5,46.8,,,,60,
  23. 2019-09-14T11:42:46.999Z,43.80289958337619,11.199611001457212,96.34175872802734,6.0,314.22778,0.0,23,gps,0.9,1.3,1.6,46.8,,,,60,
  24. 2019-09-14T11:43:16.999Z,43.80289958337619,11.199611001457212,96.07105255126953,4.0,317.00647,0.0,19,gps,0.9,1.7,1.9,46.8,,,,58,
  25. 2019-09-14T11:43:47.999Z,43.8029248322027,11.199536290386435,96.45116424560547,6.0,293.26715,0.0,23,gps,1.0,1.5,1.8,46.8,,,,58,
  26. 2019-09-14T11:44:18.999Z,43.8029248322027,11.199536290386435,96.46028137207031,4.0,297.19897,0.0,23,gps,0.9,1.2,1.5,46.8,,,,58,
  27. 2019-09-14T11:44:49.999Z,43.8029248322027,11.199536290386435,96.46302032470703,6.0,311.13828,0.0,24,gps,1.1,1.4,1.7,46.8,,,,58,
  28. 2019-09-14T11:45:20.999Z,43.8029142231588,11.199536792807113,96.25140380859375,6.0,274.0315,0.0,24,gps,0.9,1.5,1.8,46.8,,,,58,
  29. 2019-09-14T11:45:50.999Z,43.80291710380879,11.199536422901998,95.81660461425781,6.0,275.8119,0.0,21,gps,0.8,1.1,1.3,46.8,,,,58,
  30. 2019-09-14T11:46:21.999Z,43.80291710380879,11.199536422901998,95.93397521972656,6.0,271.8127,0.0,19,gps,1.2,1.7,2.1,46.8,,,,58,
  31. 2019-09-14T11:46:51.999Z,43.80291710380879,11.199536422901998,96.2494888305664,8.0,301.83533,0.0,17,gps,1.1,1.6,2.0,46.8,,,,58,
  32. 2019-09-14T11:47:22.999Z,43.80291710380879,11.199536422901998,96.21305084228516,8.0,300.61884,0.0,19,gps,1.0,1.4,1.7,46.8,,,,58,
  33. 2019-09-14T11:47:53.999Z,43.80291710380879,11.199536422901998,96.59075164794922,8.0,294.06042,0.0,19,gps,0.9,1.3,1.6,46.8,,,,58,
  34. 2019-09-14T11:48:24.999Z,43.80291710380879,11.199536422901998,96.61040496826172,8.0,300.76404,0.0,18,gps,1.0,1.5,1.8,46.8,,,,58,
  35. 2019-09-14T11:48:55.999Z,43.80291710380879,11.199536422901998,96.53763580322266,8.0,227.8573,0.0,21,gps,1.1,1.5,1.8,46.8,,,,58,
  36. 2019-09-14T11:49:26.999Z,43.80291710380879,11.199536422901998,96.43595123291016,6.0,207.06738,0.0,21,gps,1.1,1.3,1.7,46.8,,,,58,
  37. 2019-09-14T11:49:57.999Z,43.80291710380879,11.199536422901998,96.3402328491211,6.0,202.60161,0.0,20,gps,0.9,1.3,1.6,46.8,,,,58,
  38. 2019-09-14T11:50:27.999Z,43.80291710380879,11.199536422901998,96.07241821289062,6.0,213.72812,0.0,21,gps,0.9,1.2,1.5,46.8,,,,58,
  39. 2019-09-14T11:50:58.999Z,43.80291710380879,11.199536422901998,96.06336975097656,6.0,210.98557,0.0,20,gps,1.0,1.2,1.5,46.8,,,,58,
  40. 2019-09-14T11:51:29.999Z,43.80291710380879,11.199536422901998,95.97575378417969,6.0,188.90085,0.0,21,gps,0.8,1.0,1.3,46.8,,,,58,
  41. 2019-09-14T11:52:00.999Z,43.80291710380879,11.199536422901998,96.350341796875,8.0,127.63675,0.0,22,gps,0.8,1.1,1.3,46.8,,,,58,
  42. 2019-09-14T11:52:31.999Z,43.80291710380879,11.199536422901998,96.2320556640625,8.0,120.41846,0.0,17,gps,0.8,1.3,1.5,46.8,,,,57,
  43. 2019-09-14T11:53:02.999Z,43.80291710380879,11.199536422901998,96.40440368652344,6.0,120.35545,0.0,17,gps,0.9,1.5,1.7,46.8,,,,57,
  44. 2019-09-14T11:53:32.999Z,43.80291710380879,11.199536422901998,96.4715347290039,8.0,141.79753,0.0,20,gps,1.1,1.6,2.0,46.8,,,,57,
  45. 2019-09-14T11:54:03.999Z,43.80291710380879,11.199536422901998,96.4706802368164,6.0,158.19606,0.0,19,gps,1.0,1.3,1.7,46.8,,,,57,
  46. 2019-09-14T11:54:34.999Z,43.80291710380879,11.199536422901998,96.57061767578125,6.0,165.9143,0.0,19,gps,1.0,1.4,1.7,46.8,,,,57,
  47. 2019-09-14T11:55:05.999Z,43.80291710380879,11.199536422901998,96.54456329345703,4.0,162.7201,0.0,20,gps,1.0,1.6,1.9,46.8,,,,57,
  48. 2019-09-14T11:55:35.999Z,43.80291710380879,11.199536422901998,96.25807189941406,4.0,90.1022,0.0,17,gps,1.1,1.4,1.8,46.8,,,,57,
  49. 2019-09-14T11:56:05.999Z,43.80291710380879,11.199536422901998,96.15853118896484,4.0,75.782394,0.0,19,gps,0.9,1.3,1.6,46.8,,,,57,
  50. 2019-09-14T11:56:36.999Z,43.80286978556602,11.199584753987521,96.43321990966797,6.0,68.714966,0.19067995,19,gps,0.8,1.3,1.5,46.8,,,,57,
  51. 2019-09-14T11:57:07.999Z,43.80285844314734,11.199571937067025,96.52781677246094,4.0,74.95349,0.0,21,gps,1.0,1.6,1.9,46.8,,,,57,
  52. 2019-09-14T11:57:37.999Z,43.80285844314734,11.199571937067025,96.76253509521484,4.0,69.823006,0.0,20,gps,0.9,1.4,1.7,46.8,,,,57,
  53. 2019-09-14T11:58:08.999Z,43.80285844314734,11.199571937067025,96.85364532470703,4.0,68.331566,0.0,21,gps,1.0,1.3,1.6,46.8,,,,57,
  54. 2019-09-14T11:58:38.999Z,43.80284397110832,11.1995784591061,96.98563385009766,8.0,98.53857,0.30889994,20,gps,1.0,2.0,2.2,46.8,,,,57,
  55. 2019-09-14T11:59:09.999Z,43.80284138343837,11.199591711013003,97.3382568359375,8.0,85.503,0.0,21,gps,1.0,1.4,1.7,46.8,,,,56,
  56. 2019-09-14T11:59:39.999Z,43.80284138343837,11.199591711013003,97.29501342773438,6.0,56.313354,0.0,20,gps,1.8,2.1,2.7,46.8,,,,56,
  57. 2019-09-14T12:00:09.999Z,43.80284138343837,11.199591711013003,97.34629821777344,4.0,86.1874,0.0,19,gps,1.1,1.3,1.7,46.8,,,,56,
  58. 2019-09-14T12:00:41.000Z,43.802830653235475,11.199659112044802,97.1448745727539,8.0,94.21922,0.0,20,gps,0.9,0.9,1.3,46.8,,,,56,
  59. 2019-09-14T12:01:11.000Z,43.80282732897766,11.199636262493456,97.36883544921875,6.0,84.86817,0.0,21,gps,1.1,1.5,1.8,46.8,,,,56,
  60. 2019-09-14T12:01:42.000Z,43.80282732897766,11.199636262493456,97.94615936279297,6.0,100.81826,0.0,20,gps,0.9,1.3,1.6,46.8,,,,56,
  61. 2019-09-14T12:02:13.000Z,43.80282732897766,11.199636262493456,98.10017395019531,8.0,115.282585,0.0,17,gps,1.0,2.1,2.3,46.8,,,,57,
  62. 2019-09-14T12:02:43.000Z,43.80282732897766,11.199636262493456,97.76923370361328,6.0,135.96864,0.0,21,gps,1.0,1.5,1.9,46.8,,,,57,
  63. 2019-09-14T12:03:13.000Z,43.80283095927261,11.19959221613129,98.00967407226562,8.0,153.86963,0.0,20,gps,1.2,1.9,2.3,46.8,,,,57,
  64. 2019-09-14T12:03:44.000Z,43.80283095927261,11.19959221613129,97.85812377929688,6.0,173.07965,0.0,17,gps,1.0,1.5,1.8,46.8,,,,57,
  65. 2019-09-14T12:04:14.000Z,43.80283095927261,11.19959221613129,98.34756469726562,4.0,159.1116,0.0,20,gps,0.8,1.0,1.3,46.8,,,,57,
  66. 2019-09-14T12:04:44.000Z,43.80290236270424,11.19961102754796,98.6878890991211,8.0,169.06516,0.6476933,20,gps,1.3,1.3,1.8,46.8,,,,57,
  67. 2019-09-14T12:05:15.000Z,43.802899434428255,11.199612997850934,98.58961486816406,6.0,175.08167,0.0,22,gps,0.8,1.1,1.4,46.8,,,,57,
  68. 2019-09-14T12:05:46.000Z,43.802899434428255,11.199612997850934,98.9272232055664,6.0,161.26451,0.0,21,gps,1.1,1.6,1.9,46.8,,,,57,
  69. 2019-09-14T12:06:16.000Z,43.802899434428255,11.199612997850934,99.07284545898438,6.0,172.276,0.0,21,gps,1.0,1.5,1.8,46.8,,,,57,
  70. 2019-09-14T12:06:47.000Z,43.802899434428255,11.199612997850934,99.24684143066406,8.0,172.91748,0.0,22,gps,0.9,1.5,1.7,46.8,,,,57,
  71. 2019-09-14T12:07:17.000Z,43.802899434428255,11.199612997850934,99.69048309326172,8.0,188.92505,0.0,17,gps,1.3,1.5,2.0,46.8,,,,57,
  72. 2019-09-14T12:07:47.000Z,43.802899434428255,11.199612997850934,99.7987289428711,8.0,136.04854,0.0,20,gps,0.9,1.1,1.5,46.8,,,,57,
  73. 2019-09-14T12:08:18.000Z,43.802899434428255,11.199612997850934,99.44328308105469,8.0,112.54787,0.0,20,gps,1.0,1.1,1.5,46.8,,,,57,
  74. 2019-09-14T12:08:48.000Z,43.802899434428255,11.199612997850934,99.47846221923828,12.0,147.01907,0.0,22,gps,1.1,1.2,1.6,46.8,,,,57,
  75. 2019-09-14T12:09:19.000Z,43.802899434428255,11.199612997850934,99.2123031616211,6.0,175.56981,0.0,21,gps,1.0,1.3,1.6,46.8,,,,57,
  76. 2019-09-14T12:09:49.000Z,43.802899434428255,11.199612997850934,99.34476470947266,6.0,178.19484,0.0,22,gps,0.8,1.3,1.5,46.8,,,,57,
  77. 2019-09-14T12:10:20.000Z,43.802899434428255,11.199612997850934,99.57421875,8.0,189.09576,0.0,20,gps,0.9,1.1,1.4,46.8,,,,57,
  78. 2019-09-14T12:10:50.000Z,43.802899434428255,11.199612997850934,99.41637420654297,8.0,212.52538,0.0,20,gps,0.9,1.0,1.4,46.8,,,,57,
  79. 2019-09-14T12:11:20.000Z,43.802899434428255,11.199612997850934,99.27472686767578,6.0,203.21826,0.0,21,gps,1.5,1.7,2.3,46.8,,,,57,
  80. 2019-09-14T12:11:51.000Z,43.80281625693811,11.19963819780625,99.24772644042969,6.0,179.05313,0.27367115,21,gps,1.0,1.4,1.7,46.8,,,,57,
  81. 2019-09-14T12:12:21.000Z,43.80282313325335,11.199638486647933,99.23714447021484,6.0,174.9765,0.0,21,gps,1.1,1.3,1.7,46.8,,,,57,
  82. 2019-09-14T12:12:52.000Z,43.80282313325335,11.199638486647933,99.57362365722656,4.0,184.88094,0.0,21,gps,1.0,1.0,1.4,46.8,,,,57,
  83. 2019-09-14T12:13:23.000Z,43.80282313325335,11.199638486647933,99.31735229492188,6.0,167.4678,0.0,22,gps,0.8,1.1,1.4,46.8,,,,57,
  84. 2019-09-14T12:13:53.000Z,43.80282313325335,11.199638486647933,99.39581298828125,6.0,211.64084,0.0,21,gps,0.8,1.1,1.4,46.8,,,,57,
  85. 2019-09-14T12:14:23.000Z,43.80279823030291,11.199604271108091,99.36095428466797,6.0,244.34904,0.0,21,gps,1.2,1.5,1.9,46.8,,,,57,
  86. 2019-09-14T12:14:54.000Z,43.80279823030291,11.199604271108091,99.44547271728516,6.0,227.54063,0.0,21,gps,0.8,1.0,1.3,46.8,,,,57,
  87. 2019-09-14T12:15:25.000Z,43.80276946047098,11.199601002171013,99.23774719238281,6.0,224.81659,0.5348556,22,gps,0.9,1.2,1.5,46.8,,,,57,
  88. 2019-09-14T12:15:56.000Z,43.80276952745574,11.199599133263062,99.34107971191406,8.0,234.43867,0.0,22,gps,0.8,1.2,1.4,46.8,,,,57,
  89. 2019-09-14T12:16:27.000Z,43.80276952745574,11.199599133263062,99.33210754394531,6.0,220.03552,0.0,22,gps,1.3,1.4,1.9,46.8,,,,57,
  90. 2019-09-14T12:16:58.000Z,43.80279947585912,11.199542353469603,99.23384857177734,6.0,205.53484,0.0,19,gps,0.8,1.1,1.4,46.8,,,,57,
  91. 2019-09-14T12:17:28.000Z,43.80279947585912,11.199542353469603,99.33993530273438,4.0,200.55347,0.0,19,gps,0.9,1.3,1.6,46.8,,,,57,
  92. 2019-09-14T12:17:58.000Z,43.80279947585912,11.199542353469603,99.4593505859375,4.0,202.88887,0.0,20,gps,1.0,1.3,1.6,46.8,,,,57,
  93. 2019-09-14T12:18:28.000Z,43.80280477676327,11.199622724687583,99.40733337402344,6.0,206.91812,0.0,21,gps,0.9,1.0,1.4,46.8,,,,57,
  94. 2019-09-14T12:18:59.000Z,43.80280477676327,11.199622724687583,99.19802856445312,4.0,193.02582,0.0,21,gps,0.9,1.0,1.3,46.8,,,,57,
  95. 2019-09-14T12:19:29.000Z,43.80280037421816,11.199608141588108,99.03852081298828,4.0,209.43307,0.0,19,gps,0.9,1.0,1.4,46.8,,,,57,
  96. 2019-09-14T12:20:00.000Z,43.80280037421816,11.199608141588108,99.33702850341797,6.0,215.83405,0.0,19,gps,0.8,1.2,1.4,46.8,,,,58,
  97. 2019-09-14T12:20:31.000Z,43.80280037421816,11.199608141588108,99.41796112060547,6.0,208.2557,0.0,15,gps,0.9,1.3,1.6,46.8,,,,58,
  98. 2019-09-14T12:21:02.000Z,43.80280037421816,11.199608141588108,99.38426208496094,6.0,194.23416,0.0,17,gps,0.7,1.3,1.5,46.8,,,,58,
  99. 2019-09-14T12:21:33.000Z,43.802800668505085,11.199663596300393,99.5765151977539,4.0,213.60161,0.0,15,gps,0.9,1.1,1.4,46.8,,,,58,
  100. 2019-09-14T12:22:04.000Z,43.802800668505085,11.199663596300393,99.31468200683594,4.0,200.88644,0.0,20,gps,0.9,1.3,1.6,46.8,,,,58,
  101. 2019-09-14T12:22:35.000Z,43.802800668505085,11.199663596300393,99.54336547851562,6.0,209.37381,0.0,18,gps,0.9,1.0,1.3,46.8,,,,58,
  102. 2019-09-14T12:23:06.000Z,43.80279965131457,11.199673925407671,99.36688232421875,6.0,156.84253,0.27450278,15,gps,0.8,1.0,1.3,46.8,,,,58,
  103. 2019-09-14T12:23:37.000Z,43.80279778801484,11.199679527440423,90.72596740722656,6.0,155.94522,0.0,20,gps,1.1,1.2,1.6,46.8,,,,58,
  104. 2019-09-14T12:24:08.000Z,43.80279778801484,11.199679527440423,90.43196868896484,4.0,72.08406,0.0,18,gps,0.9,1.1,1.4,46.8,,,,58,
  105. 2019-09-14T12:24:39.000Z,43.80279778801484,11.199679527440423,90.76219940185547,4.0,83.65929,0.0,20,gps,0.8,1.0,1.3,46.8,,,,58,
  106. 2019-09-14T12:25:10.000Z,43.80279778801484,11.199679527440423,90.46675109863281,6.0,126.26588,0.0,20,gps,0.9,1.1,1.4,46.8,,,,58,
  107. 2019-09-14T12:25:41.000Z,43.80281070128605,11.199637943629433,90.87621307373047,6.0,96.8914,0.49497536,21,gps,0.8,1.1,1.3,46.8,,,,58,
  108. 2019-09-14T12:26:12.000Z,43.80282636673009,11.19962193492703,91.13731384277344,8.0,59.765762,0.0,21,gps,1.0,1.3,1.7,46.8,,,,58,
  109. 2019-09-14T12:26:42.000Z,43.80282636673009,11.19962193492703,91.94223022460938,8.0,75.06615,0.0,16,gps,0.9,1.2,1.5,46.8,,,,58,
  110. 2019-09-14T12:27:13.000Z,43.802910752942196,11.199689199680206,91.40675354003906,6.0,80.26468,0.400405,21,gps,0.8,1.0,1.3,46.8,,,,58,
  111. 2019-09-14T12:27:43.000Z,43.8031430953671,11.1996984673203,91.49364471435547,8.0,30.015728,0.85535765,21,gps,0.8,1.1,1.3,46.8,,,,58,
  112. 2019-09-14T12:28:13.000Z,43.80342208071093,11.199703770934565,109.9426498413086,8.0,16.354805,0.0,19,gps,0.9,1.2,1.5,46.8,,,,58,
  113. 2019-09-14T12:28:44.000Z,43.80342208071093,11.199703770934565,110.15145111083984,6.0,155.45207,0.0,21,gps,0.9,1.4,1.6,46.8,,,,58,
  114. 2019-09-14T12:29:15.000Z,43.803514869227755,11.199652652244206,111.30651092529297,4.0,200.83066,0.0,20,gps,0.8,1.1,1.4,46.8,,,,58,
  115. 2019-09-14T12:29:46.000Z,43.803514869227755,11.199652652244206,106.44512939453125,4.0,252.93031,0.0,21,gps,0.9,1.1,1.5,46.8,,,,58,
  116. 2019-09-14T12:30:16.000Z,43.8035585341619,11.19962150584387,108.68053436279297,6.0,337.44745,0.2844268,21,gps,0.8,1.3,1.5,46.8,,,,58,
  117. 2019-09-14T12:30:47.000Z,43.8035585341619,11.19962150584387,100.17503356933594,6.0,310.73083,0.0,21,gps,0.8,1.2,1.4,46.8,,,,58,
  118. 2019-09-14T12:31:17.000Z,43.80365128170558,11.200201622383009,98.36535476727693,12.0,51.24825,3.0620596,21,gps,1.4,1.8,2.3,46.8,,,,58,
  119. 2019-09-14T12:31:47.000Z,43.80452886555949,11.200457479685118,98.27274423435719,6.0,6.8387794,3.0730274,19,gps,0.9,1.2,1.5,46.8,,,,58,
  120. 2019-09-14T12:32:17.000Z,43.80498779984194,11.200358582933509,100.35641928409869,8.0,320.84955,0.067457475,23,gps,1.1,1.4,1.8,46.8,,,,58,
  121. 2019-09-14T12:32:48.000Z,43.80498608371837,11.20036194782397,102.22481929658947,12.0,320.5196,0.0,23,gps,0.8,0.9,1.2,46.8,,,,58,
  122. 2019-09-14T12:33:18.000Z,43.8049821326912,11.200366065767348,102.41333147276417,6.0,320.51343,0.0,21,gps,0.7,1.0,1.3,46.8,,,,58,
  123. 2019-09-14T12:33:49.000Z,43.8049794778913,11.20036457858151,103.08073016691826,6.0,310.75824,0.4022154,23,gps,0.9,1.0,1.3,46.8,,,,58,
  124. 2019-09-14T12:34:19.000Z,43.80497168442657,11.200312156481603,103.21425964198161,6.0,305.10074,0.0,19,gps,1.0,1.1,1.5,46.8,,,,58,
  125. 2019-09-14T12:34:50.000Z,43.80497659435146,11.200290161430184,104.02409663775073,6.0,305.10074,0.19330464,20,gps,1.3,1.1,1.7,46.8,,,,58,
  126. 2019-09-14T12:35:21.000Z,43.804974730845984,11.200265329584688,103.54669606626624,6.0,305.10074,0.04926071,20,gps,0.9,1.0,1.3,46.8,,,,58,
  127. 2019-09-14T12:35:52.000Z,43.80497215313785,11.200224908640843,104.03069563768489,6.0,287.71515,0.12596203,19,gps,1.0,1.1,1.4,46.8,,,,58,
  128. 2019-09-14T12:36:22.000Z,43.80498250709533,11.200199527000393,103.69651814055689,6.0,287.71515,0.13215326,23,gps,1.6,1.3,2.1,46.8,,,,58,
  129. 2019-09-14T12:36:53.000Z,43.80498838168213,11.200152299242202,103.72502653409315,6.0,294.48392,0.13029192,19,gps,1.0,1.2,1.5,46.8,,,,58,
  130. 2019-09-14T12:37:23.000Z,43.805495468226844,11.199864121159587,105.85777474638161,8.0,13.136942,4.727594,22,gps,0.8,1.5,1.7,46.8,,,,58,
  131. 2019-09-14T12:37:54.000Z,43.80701153491948,11.2004042033735,100.55768328885772,6.0,32.273525,6.254599,23,gps,1.1,1.4,1.8,46.8,,,,58,
  132. 2019-09-14T12:38:24.000Z,43.808681286034464,11.203024037447085,101.79593658325729,4.0,47.72469,11.762651,20,gps,0.9,1.1,1.4,46.8,,,,58,
  133. 2019-09-14T12:38:55.000Z,43.81113111485015,11.206809592534317,103.73076830117189,4.0,47.459747,13.307951,21,gps,0.9,1.2,1.5,46.8,,,,58,
  134. 2019-09-14T12:39:25.000Z,43.81351727243246,11.210442818812536,103.12327405939587,4.0,49.13798,12.824657,22,gps,0.9,1.2,1.5,46.8,,,,58,
  135. 2019-09-14T12:39:56.000Z,43.815159215989226,11.213482807274403,106.16797392153072,4.0,12.683547,4.385747,23,gps,0.8,1.1,1.3,46.8,,,,58,
  136. 2019-09-14T12:40:26.000Z,43.81515153887059,11.212896869843135,103.9219785232562,4.0,228.84389,0.0,23,gps,0.9,1.0,1.4,46.8,,,,58,
  137. 2019-09-14T12:40:57.000Z,43.807370591094674,11.200727328728584,103.67516582385261,8.0,228.57306,79.874596,22,gps,0.8,1.5,1.7,46.8,,,,58,
  138. 2019-09-14T12:41:28.000Z,43.79914248410041,11.174277700460404,247.5298075454331,16.0,285.7403,80.68723,13,gps,0.9,2.0,2.2,46.8,,,,58,
  139. 2019-09-14T12:41:58.000Z,43.80714879900304,11.143583763757425,660.1875278333877,12.0,275.98804,95.72328,21,gps,1.2,1.6,2.0,46.8,,,,58,
  140. 2019-09-14T12:42:29.000Z,43.81062807539882,11.10217316403728,844.0255139099967,12.0,277.03897,117.3686,19,gps,0.7,1.2,1.4,46.8,,,,58,
  141. 2019-09-14T12:42:59.000Z,43.814214457899,11.058112837462943,1241.7290931066761,12.0,282.13354,124.27001,16,gps,0.9,1.3,1.6,46.8,,,,58,
  142. 2019-09-14T12:43:30.000Z,43.83535565981147,11.019062654597356,1568.9570860017216,8.0,312.9377,135.57161,20,gps,0.9,1.2,1.5,46.8,,,,58,
  143. 2019-09-14T12:44:00.000Z,43.862998336963074,10.982146919532061,1947.9146824870595,12.0,316.12033,147.99811,16,gps,0.9,1.3,1.6,46.8,,,,58,
  144. 2019-09-14T12:44:31.000Z,43.89293592813826,10.942793440440887,2414.4683129458335,8.0,316.2655,147.3132,13,gps,0.7,2.2,2.3,47.0,,,,58,
  145. 2019-09-14T12:45:01.000Z,43.92178024437577,10.904654987154567,2851.4620696477823,12.0,315.84717,148.01671,13,gps,0.8,2.6,2.7,47.0,,,,58,
  146. 2019-09-14T12:45:32.000Z,43.95208610178402,10.864479962134174,3289.020776358751,12.0,318.3506,153.09277,14,gps,0.9,2.6,2.7,47.0,,,,58,
  147. 2019-09-14T12:46:02.000Z,43.988163057067545,10.83275717174741,3556.5875321244894,12.0,335.27924,164.40819,17,gps,1.0,1.5,1.8,47.0,,,,58,
  148. 2019-09-14T12:46:32.000Z,44.029189597567694,10.807243494161998,3871.8923843589305,8.0,335.266,166.77798,16,gps,0.9,1.6,1.9,47.0,,,,58,
  149. 2019-09-14T12:47:03.000Z,44.07199750238539,10.77994546932415,4240.562879565521,8.0,335.3645,171.8722,15,gps,0.8,1.6,1.8,47.0,,,,58,
  150. 2019-09-14T12:47:33.000Z,44.11818326402431,10.769996956158781,4506.663012824619,12.0,1.6464548,174.85318,10,gps,1.9,2.5,3.2,47.0,,,,58,
  151. 2019-09-14T12:48:03.000Z,44.16538201487837,10.772760165743634,4892.477281727499,12.0,2.4882362,176.68123,12,gps,1.9,1.6,2.4,47.2,,,,58,
  152. 2019-09-14T12:48:34.000Z,44.215243443270005,10.775848910450843,5211.799040358146,8.0,2.644684,181.51357,12,gps,0.9,1.4,1.7,47.2,,,,58,
  153. 2019-09-14T12:49:04.000Z,44.26433261192793,10.780068866177231,5575.116939210145,8.0,3.820807,183.0327,16,gps,1.8,1.6,2.5,47.2,,,,58,
  154. 2019-09-14T12:49:35.000Z,44.31506848071936,10.784767434529021,5953.886274005261,8.0,3.3364441,183.23476,13,gps,0.9,1.2,1.5,47.2,,,,58,
  155. 2019-09-14T12:50:06.000Z,44.36621541919633,10.781507988879195,6239.797193095623,16.0,344.08667,183.92729,13,gps,3.4,2.7,4.3,47.2,,,,58,
  156. 2019-09-14T12:50:37.000Z,44.41145188517102,10.74829752487077,6564.592663278887,12.0,325.917,184.85895,15,gps,0.9,1.0,1.3,47.2,,,,58,
  157. 2019-09-14T12:51:08.000Z,44.454387166264915,10.707151942389187,6819.08954616801,12.0,325.6446,187.34467,16,gps,1.8,1.9,2.6,47.2,,,,58,
  158. 2019-09-14T12:51:39.000Z,44.498445178263424,10.665494992512869,7053.2991805041565,16.0,325.7696,191.39594,17,gps,1.7,1.3,2.1,47.2,,,,58,
  159. 2019-09-14T12:52:10.000Z,44.54267577284985,10.623787510313853,7348.714039739163,12.0,325.95016,193.28313,18,gps,1.4,1.4,2.0,47.2,,,,60,
  160. 2019-09-14T12:52:41.000Z,44.58751872237069,10.581633499268776,7656.712047409892,12.0,325.7801,194.74858,21,gps,1.2,1.4,1.8,47.2,,,,60,
  161. 2019-09-14T12:53:12.000Z,44.6328490814666,10.538866206164395,7941.734134663437,8.0,325.94135,196.50932,19,gps,1.2,1.4,1.8,47.2,,,,60,
  162. 2019-09-14T12:53:42.000Z,44.67710184085195,10.49696287105853,8189.026929357669,8.0,325.85068,199.20631,20,gps,1.3,1.5,2.0,47.5,,,,60,
  163. 2019-09-14T12:54:13.000Z,44.72314824098169,10.453122432899184,8421.479612856398,12.0,325.82623,200.97063,19,gps,1.3,1.8,2.2,47.5,,,,60,
  164. 2019-09-14T12:54:44.000Z,44.76956121216708,10.40870252231535,8616.836135372661,12.0,325.76144,202.43057,18,gps,1.7,2.3,2.8,47.5,,,,60,
  165. 2019-09-14T12:55:15.000Z,44.81679634761971,10.36361201306188,8831.89693085292,12.0,325.70108,205.65593,19,gps,1.7,2.8,3.3,47.5,,,,60,
  166. 2019-09-14T12:55:46.000Z,44.86415335429227,10.318405677260973,9037.7356907033,8.0,325.6601,206.74867,21,gps,1.7,2.3,2.9,47.5,,,,60,
  167. 2019-09-14T12:56:17.000Z,44.912192479297715,10.27243123629311,9228.60418798808,8.0,325.71127,208.94844,20,gps,1.3,1.2,1.8,47.7,,,,60,
  168. 2019-09-14T12:56:47.000Z,44.95893983605228,10.227593122817368,9399.389991432558,8.0,325.72723,211.25499,21,gps,1.3,1.3,1.8,47.7,,,,60,
  169. 2019-09-14T12:57:17.000Z,45.006103624101016,10.182189364582468,9540.365727138873,8.0,325.65735,212.2861,20,gps,1.4,2.3,2.7,47.7,,,,60,
  170. 2019-09-14T12:57:47.000Z,45.053556689679596,10.136213287246795,9718.847603212387,12.0,325.61423,212.94633,19,gps,1.8,2.7,3.2,47.7,,,,60,
  171. 2019-09-14T12:58:18.000Z,45.102503721420504,10.089080208811206,9892.3931006433,8.0,325.553,213.12712,20,gps,1.7,2.5,3.0,47.7,,,,60,
  172. 2019-09-14T12:58:49.000Z,45.151749294835724,10.041518201672242,10060.339637288898,8.0,325.53888,214.00534,20,gps,1.7,3.0,3.4,48.0,,,,60,
  173. 2019-09-14T12:59:19.000Z,45.199356172359956,9.995079786197733,10240.41584003621,8.0,325.4463,216.33926,21,gps,1.8,2.5,3.1,48.0,,,,60,
  174. 2019-09-14T12:59:50.000Z,45.24892775757164,9.946953930538903,10429.026826302126,24.0,325.4658,216.21933,20,gps,4.3,3.8,5.8,48.0,,,,60,
  175. 2019-09-14T13:00:21.000Z,45.29835066673189,9.89881422088003,10696.19573093431,12.0,325.39203,212.45265,20,gps,1.7,2.9,3.3,48.0,,,,60,
  176. 2019-09-14T13:00:52.000Z,45.346541650701255,9.85169200657011,10955.07074927222,16.0,325.4346,209.3488,22,gps,1.6,2.9,3.3,48.0,,,,60,
  177. 2019-09-14T13:01:21.999Z,45.392440976475335,9.806790054670278,11217.394288493764,16.0,325.1239,205.19772,21,gps,1.6,2.9,3.3,48.0,,,,60,
  178. 2019-09-14T13:01:52.999Z,45.43975808289174,9.760577057473053,11415.591469094034,8.0,325.36594,205.87332,20,gps,1.8,2.3,2.9,48.0,,,,60,
  179. 2019-09-14T13:02:23.999Z,45.4869534095958,9.714259793365443,11565.741679355804,8.0,325.18405,207.41678,20,gps,1.8,2.0,2.7,48.0,,,,60,
  180. 2019-09-14T13:02:54.999Z,45.5348259026983,9.66717063010297,11577.103519581176,8.0,325.25345,208.59914,19,gps,1.4,1.7,2.2,48.0,,,,60,
  181. 2019-09-14T13:03:25.999Z,45.582399770032346,9.620273096658316,11577.76309118352,8.0,325.3049,207.08803,18,gps,1.5,1.6,2.1,48.0,,,,60,
  182. 2019-09-14T13:03:55.999Z,45.62813852635793,9.575101361721169,11579.028881646691,8.0,325.2465,207.12268,21,gps,1.3,1.7,2.1,48.0,,,,60,
  183. 2019-09-14T13:04:26.999Z,45.675652652220975,9.52805913028334,11582.298959952554,6.0,325.1752,207.38817,19,gps,1.0,1.2,1.5,48.1,,,,60,
  184. 2019-09-14T13:04:57.999Z,45.72305117963166,9.481089194998068,11584.096603199132,6.0,325.1667,207.1572,20,gps,1.1,1.1,1.5,48.1,,,,60,
  185. 2019-09-14T13:05:28.999Z,45.77039805242743,9.433999496990191,11587.758558913127,8.0,325.10077,207.4642,20,gps,1.5,1.6,2.2,48.1,,,,60,
  186. 2019-09-14T13:05:59.999Z,45.81771540200662,9.386738017757446,11590.346028646913,6.0,325.10803,207.72382,21,gps,1.4,1.1,1.8,48.1,,,,60,
  187. 2019-09-14T13:06:29.999Z,45.86379090716873,9.340746914419464,11589.965074106365,6.0,325.07486,209.39925,20,gps,1.2,1.8,2.2,48.1,,,,60,
  188. 2019-09-14T13:07:00.999Z,45.9118391588085,9.292659357677499,11587.686167335318,6.0,325.0188,210.92107,16,gps,1.3,1.7,2.1,48.1,,,,60,
  189. 2019-09-14T13:07:31.999Z,45.95995092223454,9.24439016500646,11586.570677198437,6.0,324.98276,210.95201,20,gps,1.3,1.5,2.0,48.1,,,,60,
  190. 2019-09-14T13:08:02.999Z,46.00804546367201,9.196062952451191,11588.231138952691,8.0,324.96176,210.56337,20,gps,1.3,1.4,2.0,48.1,,,,60,
  191. 2019-09-14T13:08:32.999Z,46.05439184439099,9.149381967180641,11585.068167529107,8.0,324.90158,209.7022,21,gps,2.0,2.3,3.0,48.1,,,,60,
  192. 2019-09-14T13:09:03.999Z,46.102161110907154,9.101142364630142,11584.181436047373,6.0,324.8714,209.94327,21,gps,1.2,1.4,1.9,48.1,,,,61,
  193. 2019-09-14T13:09:34.999Z,46.15334093519151,9.059463852761187,11566.321531749127,12.0,340.64938,216.07092,21,gps,2.8,2.7,3.8,48.1,,,,61,
  194. 2019-09-14T13:10:05.999Z,46.213556719302126,9.04610201629249,11536.215024141635,8.0,0.9853749,223.75873,14,gps,1.9,2.3,3.0,48.1,,,,61,
  195. 2019-09-14T13:10:36.999Z,46.275908233800166,9.050333155870792,11556.529740735241,8.0,2.6764524,224.20946,20,gps,1.9,2.3,2.9,48.1,,,,61,
  196. 2019-09-14T13:11:07.999Z,46.33801717435589,9.054713842428246,11568.370936678744,8.0,2.7336206,222.57318,20,gps,1.6,1.9,2.5,48.1,,,,61,
  197. 2019-09-14T13:11:38.999Z,46.39983812331298,9.059112343936683,11576.928965315943,8.0,2.7698326,222.0788,21,gps,1.7,1.6,2.3,48.1,,,,61,
  198. 2019-09-14T13:12:08.999Z,46.4596136709049,9.063717032224048,11575.152379861198,6.0,3.187762,222.57175,17,gps,1.1,1.4,1.7,48.1,,,,61,
  199. 2019-09-14T13:12:39.999Z,46.52150738686933,9.068603485858524,11426.956827385671,8.0,3.0899708,222.17407,15,gps,2.2,2.6,3.3,48.1,,,,61,
  200. 2019-09-14T13:13:10.999Z,46.58326565596293,9.073455285134335,11200.804452651979,8.0,3.1139557,222.0455,16,gps,1.2,2.3,2.6,48.1,,,,61,
  201. 2019-09-14T13:13:41.999Z,46.645146868536024,9.078430801714143,10973.862269666024,8.0,3.17515,223.60309,17,gps,1.1,1.8,2.1,48.1,,,,61,
  202. 2019-09-14T13:14:11.999Z,46.70534333679633,9.083196895647713,10765.59503381969,8.0,3.1081011,224.1934,15,gps,1.3,2.5,2.8,48.1,,,,61,
  203. 2019-09-14T13:14:42.999Z,46.767833163223145,9.088280285826155,10580.212631421738,8.0,3.1202555,225.60164,18,gps,1.1,2.5,2.8,48.1,,,,61,
  204. 2019-09-14T13:15:13.999Z,46.83056786178341,9.093295143297178,10429.788616296082,8.0,3.104997,225.23427,19,gps,1.1,2.5,2.7,48.1,,,,61,
  205. 2019-09-14T13:15:43.999Z,46.891065264097755,9.098042279887887,10372.770977048503,4.0,3.1491184,224.39177,24,gps,0.8,1.7,1.9,48.1,,,,61,
  206. 2019-09-14T13:16:14.999Z,46.953198833379375,9.10295496943989,10353.8919169207,4.0,3.0969799,222.91096,21,gps,1.0,1.9,2.2,48.0,,,,61,
  207. 2019-09-14T13:16:45.999Z,47.01541989231464,9.107849745785876,10286.692956864787,8.0,3.1351402,224.22603,20,gps,1.1,1.8,2.1,48.0,,,,61,
  208. 2019-09-14T13:17:16.999Z,47.077514700522705,9.112816450964251,10108.605226366592,8.0,3.1194005,222.50075,21,gps,1.1,2.5,2.8,48.0,,,,61,
  209. 2019-09-14T13:17:46.999Z,47.136944695898784,9.1176384370266,9943.992886419102,8.0,3.1409214,219.39508,21,gps,0.8,1.6,1.8,48.0,,,,61,
  210. 2019-09-14T13:18:17.999Z,47.19697222304944,9.122430174119394,9886.271645612225,16.0,3.1090715,217.46526,21,gps,2.4,3.2,4.0,48.0,,,,61,
  211. 2019-09-14T13:18:47.999Z,47.25539565129195,9.127135238184175,9629.503516336827,12.0,3.1538675,215.07419,24,gps,0.9,2.0,2.2,48.0,,,,61,
  212. 2019-09-14T13:19:18.999Z,47.31512204291122,9.131952367838112,9390.353355899098,8.0,3.1423557,213.37924,23,gps,1.0,2.0,2.2,48.0,,,,61,
  213. 2019-09-14T13:19:49.999Z,47.3734762829228,9.136621244617512,9289.190664190462,16.0,3.1777186,209.99019,19,gps,1.0,2.0,2.2,48.0,,,,61,
  214. 2019-09-14T13:20:19.999Z,47.42871987592458,9.141058768867762,9208.024054786147,24.0,3.1193154,208.46448,19,gps,1.8,5.5,5.8,48.0,,,,61,
  215. 2019-09-14T13:20:50.999Z,47.48827056173249,9.145989480797168,8769.375469593064,8.0,3.2130234,206.593,20,gps,1.0,2.2,2.4,48.0,,,,61,
  216. 2019-09-14T13:21:20.999Z,47.543273502968326,9.150361578885915,8621.601533564948,8.0,3.225725,201.75201,21,gps,1.2,2.7,3.0,48.0,,,,61,
  217. 2019-09-14T13:21:50.999Z,47.59751641675714,9.154597068904563,8474.064305565844,12.0,3.1559277,201.44191,18,gps,1.3,3.0,3.3,48.0,,,,61,
  218. 2019-09-14T13:22:21.999Z,47.65334834781454,9.159196857302842,8202.327315481893,8.0,3.1991258,200.38132,17,gps,1.2,2.2,2.5,48.0,,,,61,
  219. 2019-09-14T13:22:51.999Z,47.70702514386776,9.163574105362963,8001.167183999797,8.0,3.1840522,198.51956,20,gps,0.9,1.6,1.8,48.0,,,,61,
  220. 2019-09-14T13:23:22.999Z,47.76186982640424,9.168207243432075,7794.197716748421,12.0,3.195104,196.46239,19,gps,2.0,1.2,2.3,48.0,,,,61,
  221. 2019-09-14T13:23:52.999Z,47.81455468567306,9.172418857409797,7622.760630429524,12.0,3.134656,194.77313,18,gps,1.5,2.0,2.5,48.0,,,,61,
  222. 2019-09-14T13:24:23.999Z,47.868426000270496,9.177089472329785,7503.3733471000305,4.0,3.1307411,193.68993,22,gps,0.8,1.6,1.8,48.0,,,,61,
  223. 2019-09-14T13:24:53.999Z,47.92044394106814,9.181423215685356,7493.856552176787,4.0,3.0568976,192.97603,21,gps,0.9,0.9,1.3,48.0,,,,61,
  224. 2019-09-14T13:25:24.999Z,47.973806603567716,9.18586059670105,7490.858517451102,6.0,3.1442945,191.50478,24,gps,1.2,1.5,1.9,48.0,,,,61,
  225. 2019-09-14T13:25:55.999Z,48.02714315284408,9.190315741367343,7485.695492257722,4.0,3.1442153,192.43582,25,gps,1.0,1.4,1.7,48.0,,,,62,
  226. 2019-09-14T13:26:26.999Z,48.08069063402209,9.194761403883266,7483.902757159469,4.0,3.2372248,192.50052,25,gps,0.9,1.0,1.3,48.0,,,,62,
  227. 2019-09-14T13:26:56.999Z,48.13250143544806,9.199101554027376,7486.413106118156,4.0,3.20348,192.84026,24,gps,0.9,1.0,1.4,48.0,,,,62,
  228. 2019-09-14T13:27:26.999Z,48.184382299167964,9.203442138904558,7492.413986966342,4.0,3.2153637,192.79538,23,gps,0.9,0.9,1.2,48.0,,,,62,
  229. 2019-09-14T13:27:57.999Z,48.23783659388884,9.207912230007722,7493.277743779565,6.0,3.1643646,191.56126,19,gps,1.0,1.4,1.7,48.0,,,,62,
  230. 2019-09-14T13:28:27.999Z,48.28937795019225,9.21224371472249,7493.194524364899,6.0,3.191312,191.48714,19,gps,1.5,1.5,2.1,48.0,,,,62,
  231. 2019-09-14T13:28:58.999Z,48.34259039871595,9.216722668521282,7491.205929029637,6.0,3.2510004,191.45671,21,gps,1.0,1.4,1.7,48.0,,,,62,
  232. 2019-09-14T13:29:29.999Z,48.39581110605371,9.221199388368081,7490.568402004064,4.0,3.1838503,191.10567,19,gps,0.9,1.2,1.5,48.0,,,,62,
  233. 2019-09-14T13:30:00.999Z,48.44890584536371,9.225657876499561,7488.219442883179,4.0,3.2414389,191.19853,21,gps,1.1,1.4,1.8,48.0,,,,62,
  234. 2019-09-14T13:30:31.999Z,48.50218704878159,9.230161121604105,7486.6280772796,4.0,3.2294538,192.2109,21,gps,1.1,1.3,1.7,48.0,,,,62,
  235. 2019-09-14T13:31:01.999Z,48.5540166336747,9.234563457463198,7485.137679097359,4.0,3.2193239,193.07866,19,gps,0.9,1.4,1.7,48.0,,,,62,
  236. 2019-09-14T13:31:31.999Z,48.60602373362033,9.239009426391508,7485.816657610696,4.0,3.2109964,193.36087,20,gps,1.1,1.5,1.8,48.0,,,,62,
  237. 2019-09-14T13:32:02.999Z,48.65975108967783,9.243566691847413,7485.56178075963,6.0,3.2743948,193.37508,16,gps,1.0,1.4,1.7,48.0,,,,62,
  238. 2019-09-14T13:32:32.999Z,48.711832750665785,9.248036149929343,7486.926706517516,6.0,3.2912138,193.76337,16,gps,1.1,1.4,1.8,48.0,,,,62,
  239. 2019-09-14T13:33:03.999Z,48.76563670711765,9.2526674370558,7484.824984335687,4.0,3.2710874,193.47704,18,gps,0.9,1.5,1.7,48.0,,,,62,
  240. 2019-09-14T13:33:33.999Z,48.817799677325624,9.257159299231061,7484.548494034011,4.0,3.2174668,194.0673,20,gps,0.9,1.3,1.6,48.0,,,,62,
  241. 2019-09-14T13:34:04.999Z,48.8718372562748,9.261725478007705,7442.86348757795,8.0,3.3223126,194.10225,16,gps,0.9,1.5,1.8,48.0,,,,62,
  242. 2019-09-14T13:34:34.999Z,48.92387301703244,9.26601026422011,7264.020412685344,8.0,3.2137578,191.63979,15,gps,1.9,2.6,3.2,48.0,,,,63,
  243. 2019-09-14T13:35:05.999Z,48.976244822606574,9.270359285689269,7132.646014468876,16.0,3.284948,189.53549,16,gps,3.6,4.4,5.7,48.0,,,,63,
  244. 2019-09-14T13:35:36.999Z,49.029166968497535,9.275212591937306,6818.365011208038,8.0,3.270019,186.68343,18,gps,0.8,2.2,2.4,48.0,,,,63,
  245. 2019-09-14T13:36:07.999Z,49.080048514093846,9.279338890114184,6699.39186707676,16.0,3.2278767,184.48506,14,gps,3.3,3.6,4.9,48.0,,,,63,
  246. 2019-09-14T13:36:38.999Z,49.13164984496558,9.284263805481052,6258.447741747947,8.0,3.1447058,182.42943,17,gps,0.8,2.0,2.1,48.0,,,,63,
  247. 2019-09-14T13:37:09.999Z,49.1821746341908,9.288402114264604,5879.328035360337,8.0,3.2463489,180.23518,15,gps,1.0,2.4,2.6,48.0,,,,63,
  248. 2019-09-14T13:37:40.999Z,49.23161245013192,9.292618705284344,5625.624410620653,8.0,3.2639863,176.70477,15,gps,1.2,4.3,4.4,48.0,,,,63,
  249. 2019-09-14T13:38:10.999Z,49.27826349542954,9.296548234670608,5504.321597617052,16.0,3.4869356,173.71242,20,gps,1.0,4.1,4.2,48.0,,,,63,
  250. 2019-09-14T13:38:41.999Z,49.32681452503568,9.301365152021297,5105.996767920632,8.0,3.2123275,170.65678,14,gps,1.2,4.4,4.5,48.0,,,,63,
  251. 2019-09-14T13:39:12.999Z,49.37413953451714,9.305477478137064,4828.329032583224,8.0,3.2890708,169.5176,13,gps,1.0,2.6,2.8,48.0,,,,63,
  252. 2019-09-14T13:39:43.999Z,49.42080359403087,9.309637913120664,4555.743586342969,8.0,3.259408,165.19785,13,gps,1.2,4.1,4.2,48.0,,,,63,
  253. 2019-09-14T13:40:13.999Z,49.46490986779336,9.313563468046473,4352.894442812742,8.0,3.2738671,162.68219,17,gps,0.8,2.3,2.4,48.0,,,,63,
  254. 2019-09-14T13:40:44.999Z,49.50985524475131,9.317330519806847,4092.844599258427,8.0,3.193668,160.24757,20,gps,0.9,2.6,2.7,48.0,,,,63,
  255. 2019-09-14T13:41:15.999Z,49.55394813484814,9.321088198041032,3841.8994897316697,12.0,3.2045279,156.43156,18,gps,1.2,4.0,4.2,48.0,,,,63,
  256. 2019-09-14T13:41:46.999Z,49.597117146620256,9.321151569369807,3486.524930745779,12.0,347.81754,156.13391,21,gps,1.0,1.7,2.0,48.0,,,,63,
  257. 2019-09-14T13:42:18.000Z,49.63543726600035,9.29106459598529,3370.7460717440185,12.0,317.7078,157.04124,17,gps,0.9,1.1,1.4,48.0,,,,63,
  258. 2019-09-14T13:42:49.000Z,49.66700220972703,9.24019881145441,3309.2222595098306,6.0,313.30682,166.20135,19,gps,0.9,1.2,1.5,47.9,,,,63,
  259. 2019-09-14T13:43:20.000Z,49.6949612730219,9.183417569789531,3301.4700348441224,8.0,303.27988,166.47102,20,gps,1.3,1.7,2.1,47.9,,,,63,
  260. 2019-09-14T13:43:51.000Z,49.7185932850005,9.121768003975749,3347.7603632961604,4.0,294.2306,166.93059,18,gps,0.9,1.2,1.5,47.9,,,,64,
  261. 2019-09-14T13:44:22.000Z,49.736450044726396,9.055558806730383,3353.628095102532,4.0,292.5914,166.79965,19,gps,1.0,1.3,1.6,47.9,,,,64,
  262. 2019-09-14T13:44:52.000Z,49.75356867382477,8.991394915096853,3353.1825018803306,4.0,292.33047,166.9818,20,gps,0.8,1.2,1.4,47.9,,,,64,
  263. 2019-09-14T13:45:23.000Z,49.771176331522845,8.925017868432082,3349.0605420449506,6.0,292.4019,166.81097,18,gps,1.3,1.6,2.1,47.9,,,,64,
  264. 2019-09-14T13:45:54.000Z,49.78906712455215,8.858653952918353,3345.9804083340928,4.0,292.5865,167.32437,20,gps,0.9,1.2,1.5,47.9,,,,64,
  265. 2019-09-14T13:46:24.000Z,49.80793850386187,8.795165718756255,3320.49861275925,8.0,301.70816,167.38905,20,gps,1.4,1.2,1.8,47.9,,,,64,
  266. 2019-09-14T13:46:54.000Z,49.83266273289329,8.736700202134973,3222.980879836865,12.0,303.3313,167.35117,20,gps,2.2,2.6,3.4,47.9,,,,64,
  267. 2019-09-14T13:47:25.000Z,49.85846059353587,8.676409880941012,3113.4044696498613,12.0,303.56067,167.22786,18,gps,1.8,2.5,3.1,47.9,,,,64,
  268. 2019-09-14T13:47:55.000Z,49.88318018658901,8.617992614667363,2985.9021771015855,8.0,300.5367,168.07448,20,gps,1.5,2.0,2.5,47.9,,,,64,
  269. 2019-09-14T13:48:26.000Z,49.89082905153632,8.548293062638322,2845.8726536273252,12.0,269.82437,168.03569,21,gps,1.5,1.9,2.4,47.9,,,,64,
  270. 2019-09-14T13:48:56.000Z,49.889585904110454,8.478176047970988,2709.50971107407,12.0,262.81543,167.53917,21,gps,1.3,2.3,2.6,47.9,,,,64,
  271. 2019-09-14T13:49:27.000Z,49.879002118285584,8.408511932709962,2555.525882737828,12.0,254.17677,167.17435,17,gps,1.1,2.6,2.9,47.9,,,,65,
  272. 2019-09-14T13:49:58.000Z,49.86661806349738,8.341156742912508,2332.792359371122,16.0,254.2609,158.91133,16,gps,1.0,2.2,2.4,47.9,,,,65,
  273. 2019-09-14T13:50:28.000Z,49.85527634758751,8.277273434474878,2083.8933440655915,16.0,254.28899,158.83743,18,gps,1.1,2.1,2.4,47.9,,,,65,
  274. 2019-09-14T13:50:58.000Z,49.843694383345415,8.21387715481698,1922.5727870119713,16.0,254.1767,158.06934,13,gps,3.4,2.9,4.5,47.8,,,,65,
  275. 2019-09-14T13:51:29.000Z,49.831782527408095,8.148162059401171,1738.4094362959345,8.0,255.00192,155.80664,17,gps,0.9,6.1,6.2,47.8,,,,65,
  276. 2019-09-14T13:52:00.000Z,49.82830213036031,8.082398601069452,1573.7070674737283,24.0,290.43222,155.61342,6,gps,3.6,3.6,5.1,47.8,,,,65,
  277. 2019-09-14T13:52:31.000Z,49.855326888473286,8.032043254460685,1407.3723085968204,24.0,331.13568,145.56004,13,gps,1.8,3.1,3.6,47.8,,,,65,
  278. 2019-09-14T13:53:01.000Z,49.890806973410804,8.03553218582659,1339.2523511998384,16.0,30.212622,127.64667,16,gps,1.5,1.1,1.8,47.8,,,,65,
  279. 2019-09-14T13:53:32.000Z,49.914478524138204,8.072531459205065,1329.0949711548078,16.0,63.271477,118.5774,18,gps,1.2,1.6,2.0,47.8,,,,65,
  280. 2019-09-14T13:54:03.000Z,49.92803938986447,8.119871090315675,1325.4484836729193,4.0,65.75747,121.45833,17,gps,0.8,1.4,1.6,47.8,,,,65,
  281. 2019-09-14T13:54:33.000Z,49.93947781937262,8.167084101108108,1326.6367421411262,4.0,69.71292,119.2924,20,gps,0.8,1.3,1.5,47.8,,,,65,
  282. 2019-09-14T13:55:04.000Z,49.95101199705581,8.21535560197417,1320.4646684178592,4.0,69.91808,117.98225,19,gps,0.9,1.3,1.6,47.8,,,,65,
  283. 2019-09-14T13:55:35.000Z,49.96268207481105,8.263666224914576,1308.4141835009846,8.0,69.72742,121.055504,19,gps,0.8,1.3,1.5,47.8,,,,65,
  284. 2019-09-14T13:56:06.000Z,49.9743012959863,8.311735297127534,1194.1108217320898,8.0,68.76916,116.44825,17,gps,0.8,1.8,1.9,47.8,,,,65,
  285. 2019-09-14T13:56:37.000Z,49.98515743042296,8.357220056536873,1001.9561541207288,12.0,71.083565,107.05505,19,gps,0.8,1.6,1.8,47.8,,,,66,
  286. 2019-09-14T13:57:10.000Z,49.9959035376425,8.40115077532412,907.6644689701101,32.0,69.61169,100.922264,10,gps,6.8,11.0,12.9,47.8,,,,66,
  287. 2019-09-14T13:57:40.000Z,50.0047102067433,8.439121848301163,638.2001536151047,8.0,70.29572,84.98797,20,gps,0.9,1.3,1.6,47.8,,,,66,
  288. 2019-09-14T13:58:11.000Z,50.012337274734435,8.470249349185613,517.8665806635137,6.0,70.0838,71.9356,17,gps,0.9,3.8,3.9,47.8,,,,66,
  289. 2019-09-14T13:58:42.000Z,50.01936575286967,8.499768423724687,472.52093781859213,6.0,69.97548,72.81204,21,gps,1.0,7.5,7.6,47.8,,,,66,
  290. 2019-09-14T13:59:12.000Z,50.02616985037315,8.528328977919324,382.0317752531534,12.0,69.816376,73.116196,17,gps,1.0,2.4,2.6,47.8,,,,66,
  291. 2019-09-14T13:59:42.000Z,50.03235192981089,8.55445031898651,170.99015413399644,8.0,69.51564,52.902542,18,gps,1.2,1.6,2.0,47.8,,,,66,
  292. 2019-09-14T14:00:12.000Z,50.035956923034306,8.56881843296633,161.55046958331027,8.0,63.747017,21.922092,18,gps,1.1,1.5,1.8,47.8,,,,66,
  293. 2019-09-14T14:00:43.000Z,50.0387335459089,8.573069900392316,163.97078300914882,4.0,39.94893,13.705483,20,gps,0.8,1.2,1.5,47.8,,,,66,
  294. 2019-09-14T14:01:14.000Z,50.040532959509704,8.57806154377941,165.78273928246304,6.0,69.66658,13.414463,20,gps,0.7,1.3,1.5,47.8,,,,66,
  295. 2019-09-14T14:01:44.000Z,50.04228563484238,8.582153094137409,161.33704719487017,12.0,25.286726,11.639088,20,gps,0.8,1.4,1.6,47.8,,,,66,
  296. 2019-09-14T14:02:15.000Z,50.045071710986896,8.580815945081312,161.9102526763375,6.0,339.58984,7.092458,20,gps,1.1,1.2,1.6,47.8,,,,66,
  297. 2019-09-14T14:02:46.000Z,50.04491648488118,8.577780459873123,169.68019848944283,6.0,249.61661,9.752236,18,gps,0.9,1.3,1.6,47.8,,,,66,
  298. 2019-09-14T14:03:16.000Z,50.04387013500039,8.573338392604786,163.46415019818158,6.0,249.96921,12.358226,16,gps,1.0,1.5,1.9,47.8,,,,66,
  299. 2019-09-14T14:03:47.000Z,50.042875467847786,8.56917264129838,164.9244584621511,6.0,257.6902,7.80834,19,gps,1.0,1.4,1.7,47.8,,,,66,
  300. 2019-09-14T14:04:17.000Z,50.04439770957757,8.56852837745356,167.44031602775036,8.0,9.498498,6.9269757,21,gps,1.1,1.5,1.8,47.8,,,,66,
  301. 2019-09-14T14:04:47.000Z,50.04405692849229,8.56958103038442,167.09370255559702,4.0,159.26315,4.348931,22,gps,0.9,1.4,1.6,47.8,,,,66,
  302. 2019-09-14T14:05:18.000Z,50.043717468102294,8.569765292192777,176.13329247058758,8.0,170.594,0.6308861,19,gps,2.0,1.5,2.5,47.8,,,,66,
  303. 2019-09-14T14:05:49.000Z,50.04379638048218,8.56973688956335,171.5671225803303,8.0,74.01056,0.004527137,18,gps,1.1,2.0,2.3,47.8,,,,65,
  304. 2019-09-14T14:06:21.000Z,50.04372278378115,8.569664395640569,169.70634437662196,16.0,264.4503,0.28272256,20,gps,0.8,1.3,1.6,47.8,,,,65,
  305. 2019-09-14T14:58:29.745Z,50.0471601,8.5617108,151.5,32.1,,,0,network,,,,,,,,60,
  306. 2019-09-14T14:59:00.999Z,50.04730711449342,8.56206868021994,166.7595672607422,8.0,90.036415,0.0,20,gps,1.1,2.0,2.3,47.8,,,,60,
  307. 2019-09-14T14:59:31.999Z,50.04730711449342,8.56206868021994,174.4312286376953,12.0,90.02778,0.0,18,gps,1.5,1.7,2.3,47.8,,,,60,
  308. 2019-09-14T15:00:02.999Z,50.04720718539321,8.561834475545236,172.9337158203125,6.0,90.00554,0.0,17,gps,1.0,1.9,2.2,47.8,,,,60,
  309. 2019-09-14T15:00:32.999Z,50.04720718539321,8.561834475545236,170.141845703125,6.0,90.00016,0.0,17,gps,1.0,1.9,2.2,47.8,,,,60,
  310. 2019-09-14T15:01:03.999Z,50.04720718539321,8.561834475545236,167.26724243164062,6.0,90.020805,0.0,20,gps,0.9,1.8,2.0,47.8,,,,60,
  311. 2019-09-14T15:01:34.999Z,50.04720718539321,8.561834475545236,167.57354736328125,8.0,90.003746,0.0,19,gps,1.5,1.9,2.5,47.8,,,,60,
  312. 2019-09-14T15:02:05.000Z,50.04704059243076,8.561727099616398,169.50599670410156,6.0,90.00044,0.0,18,gps,1.1,1.8,2.1,47.8,,,,60,
  313. 2019-09-14T15:02:36.000Z,50.04704059243076,8.561727099616398,167.14541625976562,8.0,89.99982,0.0,22,gps,1.6,2.0,2.6,47.8,,,,60,
  314. 2019-09-14T15:03:07.000Z,50.04704059243076,8.561727099616398,168.36476135253906,8.0,89.77555,0.0,20,gps,1.6,2.0,2.6,47.8,,,,60,
  315. 2019-09-14T15:03:37.000Z,50.046944192123426,8.561975331064051,167.53717041015625,6.0,140.006,0.0,21,gps,1.4,1.8,2.3,47.8,,,,60,
  316. 2019-09-14T15:04:08.000Z,50.04665911910906,8.56233865135155,167.81109619140625,8.0,117.22758,0.0,23,gps,1.9,2.1,2.8,47.8,,,,60,
  317. 2019-09-14T15:04:38.000Z,50.04654698193015,8.562565956044512,174.66883850097656,8.0,110.402855,0.0,24,gps,0.8,1.2,1.5,47.8,,,,60,
  318. 2019-09-14T15:05:09.000Z,50.04651362096985,8.56351057321259,173.72085631988412,6.0,70.32392,1.3643806,22,gps,1.4,2.4,2.8,47.8,,,,60,
  319. 2019-09-14T15:05:40.000Z,50.04656930878731,8.563693489965782,174.39512996006928,8.0,69.34095,0.043329854,21,gps,1.4,1.4,2.0,47.8,,,,60,
  320. 2019-09-14T15:06:11.000Z,50.046516990777874,8.563647143776612,175.22398623212496,8.0,69.34095,0.019385278,23,gps,0.9,1.6,1.8,47.8,,,,60,
  321. 2019-09-14T15:06:42.000Z,50.0465126960219,8.563664830529616,175.16008988529498,6.0,109.901535,0.3628136,21,gps,0.8,1.3,1.5,47.8,,,,60,
  322. 2019-09-14T15:07:13.000Z,50.0465151528785,8.56364732815791,175.07726291306994,8.0,117.45619,0.07845208,23,gps,0.8,1.3,1.5,47.8,,,,60,
  323. 2019-09-14T15:07:44.000Z,50.046517638912384,8.563659257316514,171.0588815823848,4.0,117.45619,0.08127067,20,gps,0.8,1.1,1.4,47.8,,,,60,
  324. 2019-09-14T15:08:15.000Z,50.0464850221924,8.56370527713186,165.4347970207012,6.0,117.45619,0.056390014,21,gps,0.7,1.1,1.4,47.8,,,,60,
  325. 2019-09-14T15:08:46.000Z,50.04647492920861,8.563675043252276,165.53350572204397,6.0,138.19644,0.01122125,19,gps,0.8,1.1,1.3,47.8,,,,60,
  326. 2019-09-14T15:09:17.000Z,50.046392286373255,8.56310443252885,165.47317053288896,8.0,249.65044,3.5709968,21,gps,0.8,1.1,1.4,47.8,,,,60,
  327. 2019-09-14T15:09:47.000Z,50.04584206326512,8.56084816379295,168.1103223711816,6.0,248.68137,7.370926,19,gps,0.9,1.3,1.6,47.8,,,,60,
  328. 2019-09-14T15:10:18.000Z,50.044262637807535,8.559043724469971,167.17111028944123,6.0,187.71478,9.220493,21,gps,0.9,1.6,1.9,47.8,,,,60,
  329. 2019-09-14T15:10:48.000Z,50.04231207921261,8.560332988944843,166.26851572504154,4.0,159.59955,8.185313,23,gps,0.8,1.1,1.4,47.8,,,,60,
  330. 2019-09-14T15:11:19.000Z,50.04055426497107,8.559788985705296,165.89446616546184,4.0,250.74261,8.5549965,21,gps,0.8,1.2,1.5,47.8,,,,60,
  331. 2019-09-14T15:11:50.000Z,50.03960956456949,8.55559893788236,165.33174968333756,4.0,249.85764,11.5912895,18,gps,0.9,1.2,1.5,47.8,,,,60,
  332. 2019-09-14T15:12:21.000Z,50.038386214402166,8.550473963909342,165.41220901707285,4.0,249.24754,12.315591,23,gps,0.9,1.2,1.5,47.8,,,,60,
  333. 2019-09-14T15:12:52.000Z,50.037256712245345,8.545799693189775,163.10149389137752,4.0,249.60863,7.30222,20,gps,1.1,1.5,1.8,47.8,,,,60,
  334. 2019-09-14T15:13:22.000Z,50.0365881735254,8.543203532064242,162.53639951497217,6.0,228.9097,7.774693,19,gps,1.2,1.5,1.9,47.8,,,,60,
  335. 2019-09-14T15:13:53.000Z,50.03482738599361,8.544044840686656,162.42698904656936,6.0,111.2656,5.1177826,22,gps,0.8,1.2,1.4,47.8,,,,60,
  336. 2019-09-14T15:14:23.000Z,50.036585638709596,8.551469109625051,164.26639504731506,6.0,69.97651,49.97927,19,gps,1.3,1.6,2.1,47.8,,,,60,
  337. 2019-09-14T15:14:54.000Z,50.04344992400577,8.581613329735221,153.44410529574864,12.0,70.24003,79.95962,17,gps,1.1,1.8,2.1,47.8,,,,60,
  338. 2019-09-14T15:15:25.000Z,50.0521407637123,8.615116902789932,441.31427237882366,12.0,55.47315,91.42214,21,gps,1.2,3.6,3.8,47.8,,,,60,
  339. 2019-09-14T15:15:56.000Z,50.07642330471029,8.635594540452487,908.5213307698323,8.0,3.9956734,116.04964,23,gps,1.6,2.0,2.5,47.8,,,,60,
  340. 2019-09-14T15:16:27.000Z,50.11191219047783,8.63372246096943,1297.4179095191705,16.0,357.5738,135.07883,19,gps,0.9,1.0,1.4,47.8,,,,60,
  341. 2019-09-14T15:16:58.000Z,50.150241070629214,8.631099766908049,1875.948472881737,8.0,357.3913,139.85661,19,gps,1.2,1.2,1.7,47.8,,,,60,
  342. 2019-09-14T15:17:29.000Z,50.18935176367159,8.636026176630999,2431.2183164440567,12.0,21.257282,144.27193,20,gps,1.4,1.7,2.2,47.8,,,,60,
  343. 2019-09-14T15:18:00.000Z,50.22647378540943,8.66079443298121,3016.1394095857195,12.0,23.649792,147.33365,17,gps,1.1,1.1,1.5,47.8,,,,60,
  344. 2019-09-14T15:18:31.000Z,50.265310549790115,8.687446649105091,3494.8457054589326,8.0,23.57778,160.89836,21,gps,1.7,2.1,2.7,47.8,,,,60,
  345. 2019-09-14T15:19:02.000Z,50.307431038918764,8.71654566543553,3914.924673572785,8.0,23.90061,168.60196,17,gps,1.9,1.8,2.6,47.7,,,,60,
  346. 2019-09-14T15:19:32.000Z,50.34939903819147,8.745578680248727,4403.559732664156,8.0,23.879269,174.43188,22,gps,1.7,1.8,2.4,47.7,,,,60,
  347. 2019-09-14T15:20:03.000Z,50.396338002887,8.77804800981839,4636.920874621479,16.0,23.869463,192.16653,18,gps,1.2,1.3,1.8,47.7,,,,60,
  348. 2019-09-14T15:20:34.000Z,50.44559372875385,8.812582818580355,5049.109523091658,12.0,23.861574,195.82957,21,gps,0.8,1.5,1.7,47.7,,,,60,
  349. 2019-09-14T15:21:05.000Z,50.49623724895029,8.847717690073893,5479.006410534224,12.0,23.721855,200.65915,20,gps,0.9,1.4,1.6,47.7,,,,60,
  350. 2019-09-14T15:21:36.000Z,50.54795970236734,8.88365972770143,5882.387032349363,8.0,23.923101,204.54543,19,gps,1.1,1.6,1.9,47.5,,,,60,
  351. 2019-09-14T15:22:07.000Z,50.60053550644488,8.920281068567807,6261.62389910408,12.0,23.662828,208.24944,16,gps,1.1,1.3,1.7,47.5,,,,60,
  352. 2019-09-14T15:22:38.000Z,50.65402528982899,8.957580986055557,6622.293033323007,12.0,24.03268,210.30846,19,gps,1.2,1.5,1.9,47.5,,,,60,
  353. 2019-09-14T15:23:09.000Z,50.70754555304532,8.99531281446388,7076.526014804628,8.0,24.021261,213.2955,21,gps,0.9,1.3,1.6,47.5,,,,60,
  354. 2019-09-14T15:23:40.000Z,50.76222831454332,9.033740671780865,7406.0588660065205,8.0,24.035423,217.01653,21,gps,1.1,1.4,1.8,47.5,,,,60,
  355. 2019-09-14T15:24:10.000Z,50.81609785486674,9.071685235765477,7688.243495323347,12.0,24.04904,220.84846,21,gps,1.1,1.5,1.9,47.4,,,,60,
  356. 2019-09-14T15:24:40.000Z,50.87089371135083,9.11076245223872,7944.714061737731,16.0,24.168192,225.07033,19,gps,0.9,1.5,1.7,47.4,,,,60,
  357. 2019-09-14T15:25:10.000Z,50.92865871461745,9.142194486075287,8199.225911015641,12.0,12.532912,227.81302,20,gps,0.8,1.1,1.4,47.4,,,,60,
  358. 2019-09-14T15:25:41.000Z,50.99069911415418,9.160485214967608,8476.3079094294,8.0,10.443965,228.63113,20,gps,1.1,1.8,2.1,47.4,,,,60,
  359. 2019-09-14T15:26:12.000Z,51.05352518704969,9.179243738864075,8753.126055657302,8.0,10.601889,228.74165,15,gps,1.2,2.1,2.5,47.2,,,,60,
  360. 2019-09-14T15:26:43.000Z,51.116856405810424,9.197834906837903,8985.232401528267,8.0,10.449824,233.30476,16,gps,1.2,1.6,2.0,47.2,,,,60,
  361. 2019-09-14T15:27:13.000Z,51.179110665706496,9.216220586993913,9173.131616068524,8.0,10.510352,236.50627,20,gps,0.8,1.2,1.5,47.2,,,,60,
  362. 2019-09-14T15:27:44.000Z,51.24441161084018,9.235530506368175,9337.981140651613,8.0,10.541178,240.49944,22,gps,0.8,1.1,1.4,47.2,,,,60,
  363. 2019-09-14T15:28:15.000Z,51.31037847766568,9.255060636762057,9534.284113095608,8.0,10.491288,241.4894,18,gps,1.1,1.4,1.8,47.1,,,,60,
  364. 2019-09-14T15:28:46.000Z,51.37603389989924,9.27462287169278,9802.520589140142,8.0,10.435311,238.43982,19,gps,0.9,1.4,1.7,47.1,,,,60,
  365. 2019-09-14T15:29:17.000Z,51.44079042104933,9.293865000137547,10105.458671681672,8.0,10.580777,234.27586,21,gps,1.3,1.4,2.0,47.1,,,,60,
  366. 2019-09-14T15:29:47.000Z,51.502400533233725,9.31212852332321,10407.22335660718,12.0,10.574051,231.17502,21,gps,1.2,1.4,1.9,47.1,,,,60,
  367. 2019-09-14T15:30:18.000Z,51.565382254825295,9.331038526732355,10640.43855648612,8.0,10.560543,230.26224,21,gps,0.9,1.2,1.5,46.9,,,,60,
  368. 2019-09-14T15:30:49.000Z,51.62811430662806,9.349883794195561,10846.92218422224,8.0,10.567694,228.71667,20,gps,1.0,1.4,1.7,46.9,,,,61,
  369. 2019-09-14T15:31:19.000Z,51.68866722249094,9.368020956395704,11009.83201764063,8.0,10.575715,228.83865,21,gps,1.3,1.7,2.1,46.9,,,,61,
  370. 2019-09-14T15:31:50.000Z,51.750897332549805,9.386852990839058,11208.092148654177,8.0,10.5471,225.94814,23,gps,1.1,1.7,2.0,46.9,,,,61,
  371. 2019-09-14T15:32:21.000Z,51.812086185643885,9.405328654306045,11437.100163469,12.0,10.653896,222.4435,16,gps,0.9,1.4,1.6,46.8,,,,61,
  372. 2019-09-14T15:32:51.000Z,51.87114797910975,9.41961366646572,11610.21433715951,8.0,5.5408797,220.4194,18,gps,1.1,1.7,2.0,46.8,,,,61,
  373. 2019-09-14T15:33:22.000Z,51.93202213196535,9.428784230702183,11735.700345336845,4.0,5.340408,220.9023,16,gps,1.0,1.9,2.2,46.8,,,,61,
  374. 2019-09-14T15:33:52.000Z,51.99135858481585,9.438005594146953,11764.676181421251,4.0,5.667216,220.83717,18,gps,0.8,1.3,1.5,46.8,,,,61,
  375. 2019-09-14T15:34:23.000Z,52.052423489889726,9.44794745713988,11765.454715025911,6.0,5.801684,220.08897,22,gps,1.0,1.2,1.6,46.6,,,,61,
  376. 2019-09-14T15:34:53.000Z,52.1113647687377,9.457625570072647,11761.460542302131,4.0,5.678506,220.38155,24,gps,0.8,1.0,1.3,46.6,,,,61,
  377. 2019-09-14T15:35:24.000Z,52.17257639957568,9.467141026188791,11759.214260154564,4.0,5.260477,221.43797,19,gps,0.9,1.1,1.4,46.6,,,,61,
  378. 2019-09-14T15:35:55.000Z,52.23392983269753,9.476150909216926,11756.431129540624,6.0,5.113123,222.15825,21,gps,0.8,1.6,1.8,46.6,,,,61,
  379. 2019-09-14T15:36:26.000Z,52.29552321760015,9.484857739518123,11758.63097299806,6.0,4.88012,222.47523,19,gps,0.9,1.4,1.6,46.6,,,,61,
  380. 2019-09-14T15:36:57.000Z,52.35730442383456,9.493526831461697,11758.466799795551,4.0,4.876108,223.01271,22,gps,0.7,1.4,1.5,46.4,,,,61,
  381. 2019-09-14T15:37:28.000Z,52.41905571829551,9.501858437309929,11767.088971404251,4.0,4.728618,222.62949,20,gps,0.8,1.3,1.5,46.4,,,,61,
  382. 2019-09-14T15:37:59.000Z,52.480741260028594,9.510179922723353,11766.95827719143,4.0,4.5979548,222.56071,23,gps,0.9,1.1,1.4,46.4,,,,61,
  383. 2019-09-14T15:38:29.000Z,52.54049387134487,9.51833279835898,11756.817593684273,6.0,4.725759,222.48871,14,gps,1.0,1.3,1.6,46.4,,,,61,
  384. 2019-09-14T15:39:00.000Z,52.60205941871225,9.531053927977565,11750.098264673934,6.0,10.650423,223.72556,22,gps,0.8,1.8,2.0,46.2,,,,61,
  385. 2019-09-14T15:39:31.000Z,52.663369715724535,9.551882318932128,11748.131206094029,8.0,11.559344,224.57014,17,gps,1.1,2.5,2.8,46.2,,,,61,
  386. 2019-09-14T15:40:01.000Z,52.7224764995006,9.571828108191925,11747.34181323233,6.0,11.562947,224.77357,17,gps,0.7,1.3,1.5,46.2,,,,61,
  387. 2019-09-14T15:40:32.000Z,52.78370936950793,9.592536326129236,11765.616805382682,6.0,11.644197,224.63979,19,gps,0.7,1.4,1.6,46.2,,,,61,
  388. 2019-09-14T15:41:03.000Z,52.84489223791031,9.613295726525822,11756.422893988134,6.0,11.620832,224.54408,22,gps,0.8,1.6,1.8,46.1,,,,61,
  389. 2019-09-14T15:41:34.000Z,52.90593740682592,9.634079847126078,11749.578424897418,6.0,11.745861,224.11504,22,gps,0.8,1.5,1.6,46.1,,,,61,
  390. 2019-09-14T15:42:05.000Z,52.966720274754756,9.655093513263008,11740.932742850553,6.0,11.630013,223.17152,22,gps,0.8,1.1,1.4,46.1,,,,61,
  391. 2019-09-14T15:42:36.000Z,53.02741419464025,9.675799488370776,11738.24592516011,4.0,11.61883,222.51819,22,gps,0.7,1.3,1.5,46.1,,,,61,
  392. 2019-09-14T15:43:07.000Z,53.08780895757394,9.696501852218296,11722.49486954531,12.0,11.660686,221.2962,18,gps,0.8,1.8,2.0,45.9,,,,61,
  393. 2019-09-14T15:43:37.000Z,53.14599094337972,9.716558510553948,11747.959346435648,4.0,11.864941,220.00201,22,gps,1.0,1.3,1.6,45.9,,,,61,
  394. 2019-09-14T15:44:07.000Z,53.203705846295115,9.736646259798842,11751.519042125226,8.0,11.77889,218.93481,21,gps,1.5,1.2,1.9,45.9,,,,61,
  395. 2019-09-14T15:44:38.000Z,53.26328577705519,9.757288691036537,11740.416867286624,6.0,11.727326,218.22952,17,gps,0.8,1.2,1.4,45.9,,,,61,
  396. 2019-09-14T15:45:09.000Z,53.32251029617132,9.777912943039157,11742.656024779875,6.0,11.7279625,217.63145,16,gps,1.2,1.9,2.2,45.7,,,,61,
  397. 2019-09-14T15:45:39.000Z,53.37989041551532,9.79802724617392,11737.163918132017,6.0,11.840742,217.57219,20,gps,0.8,1.4,1.6,45.7,,,,61,
  398. 2019-09-14T15:46:10.000Z,53.4393120959044,9.818698257776454,11733.139434116654,6.0,11.823356,218.03017,16,gps,1.1,1.7,2.0,45.7,,,,61,
  399. 2019-09-14T15:46:41.000Z,53.498728953106905,9.839631357579519,11732.117329557354,6.0,11.866418,217.94215,21,gps,1.3,1.7,2.1,45.7,,,,61,
  400. 2019-09-14T15:47:12.000Z,53.55808413636391,9.86052091236883,11731.326137497304,6.0,11.854303,217.7389,21,gps,1.2,1.4,1.8,45.5,,,,61,
  401. 2019-09-14T15:47:43.000Z,53.61735775571419,9.88145714471927,11731.907597299207,6.0,11.877901,217.68982,22,gps,0.8,1.1,1.4,45.5,,,,61,
  402. 2019-09-14T15:48:13.000Z,53.674586255204936,9.901654417018907,11734.505497999022,4.0,11.920404,217.64172,22,gps,0.7,1.1,1.4,45.5,,,,61,
  403. 2019-09-14T15:48:44.000Z,53.7336942209661,9.922575125850559,11730.088801228201,8.0,11.948516,217.6098,20,gps,1.3,1.8,2.2,45.5,,,,61,
  404. 2019-09-14T15:49:15.000Z,53.79274018795825,9.943832325074222,11729.081982576727,6.0,12.016906,216.82948,21,gps,1.1,1.4,1.8,45.5,,,,61,
  405. 2019-09-14T15:49:45.000Z,53.84971142365531,9.964228922555986,11730.8517148916,6.0,11.928899,215.65091,22,gps,1.1,1.4,1.8,45.3,,,,61,
  406. 2019-09-14T15:50:16.000Z,53.90837680122955,9.985203261959171,11727.179861424494,6.0,11.9594345,215.21712,21,gps,1.2,1.3,1.8,45.3,,,,61,
  407. 2019-09-14T15:50:46.000Z,53.96501708195309,10.00554146713167,11713.028259817474,4.0,11.917724,214.99954,20,gps,1.0,1.3,1.6,45.3,,,,61,
  408. 2019-09-14T15:51:16.000Z,54.021599136421834,10.025925616311813,11705.110420940538,4.0,12.064582,214.8015,22,gps,1.1,1.3,1.7,45.3,,,,61,
  409. 2019-09-14T15:51:47.000Z,54.080049889630175,10.047014224033953,11706.377012297728,6.0,11.977793,214.57509,19,gps,0.8,1.3,1.5,45.1,,,,61,
  410. 2019-09-14T15:52:18.000Z,54.13820825317042,10.068088164428005,11713.390105022867,6.0,12.072066,214.31227,19,gps,0.9,1.4,1.7,45.1,,,,61,
  411. 2019-09-14T15:52:49.000Z,54.1964745505616,10.089186243500864,11711.90645331381,6.0,12.017565,213.97502,17,gps,1.1,1.6,1.9,45.1,,,,61,
  412. 2019-09-14T15:53:20.000Z,54.25469021619591,10.110464871952829,11710.09476059362,6.0,12.012289,214.04968,19,gps,0.8,1.4,1.6,45.1,,,,61,
  413. 2019-09-14T15:53:50.000Z,54.311019248667456,10.130915594857449,11711.563514657495,6.0,12.026096,214.35417,18,gps,0.9,1.4,1.7,45.1,,,,61,
  414. 2019-09-14T15:54:21.000Z,54.36928909866229,10.15233492027287,11708.183740426415,6.0,12.151268,214.5416,22,gps,0.8,1.2,1.5,44.8,,,,61,
  415. 2019-09-14T15:54:52.000Z,54.427753724014416,10.173797206762837,11708.610582641739,6.0,12.216244,214.45554,20,gps,0.8,1.2,1.4,44.8,,,,61,
  416. 2019-09-14T15:55:23.000Z,54.4859246402678,10.19530765063657,11714.278225948485,6.0,12.077987,213.98247,18,gps,0.8,1.1,1.4,44.8,,,,61,
  417. 2019-09-14T15:55:54.000Z,54.5440693699937,10.216731241303119,11712.951431086396,4.0,12.215192,213.89401,19,gps,0.9,1.5,1.8,44.8,,,,61,
  418. 2019-09-14T15:56:25.000Z,54.60222425038627,10.238373952252324,11708.236405759833,4.0,12.156077,213.79568,21,gps,0.8,1.4,1.6,44.5,,,,61,
  419. 2019-09-14T15:56:55.000Z,54.65842980096644,10.259284877524921,11702.899759530468,6.0,12.247331,213.81375,20,gps,0.9,1.4,1.7,44.5,,,,61,
  420. 2019-09-14T15:57:26.000Z,54.71658418794069,10.281031390702896,11700.604358410204,4.0,12.208101,214.11235,22,gps,1.0,1.4,1.7,44.5,,,,61,
  421. 2019-09-14T15:57:57.000Z,54.77479124720735,10.302734117951934,11703.2591868421,6.0,12.196069,214.18576,22,gps,1.0,1.6,1.9,44.5,,,,61,
  422. 2019-09-14T15:58:28.000Z,54.8329155340068,10.324482841965793,11701.148732208841,6.0,12.267012,214.28539,21,gps,0.9,2.2,2.4,44.2,,,,61,
  423. 2019-09-14T15:58:58.000Z,54.88926623534261,10.345594705053287,11697.634075234182,4.0,12.219553,214.24986,24,gps,1.0,1.3,1.7,44.2,,,,61,
  424. 2019-09-14T15:59:29.000Z,54.94735414375,10.36752562563396,11690.47507898651,4.0,12.312164,214.13968,23,gps,0.8,1.4,1.6,44.2,,,,61,
  425. 2019-09-14T15:59:59.000Z,55.003646021652656,10.38883129432058,11687.165113353689,4.0,12.322991,214.17656,23,gps,0.7,1.4,1.6,44.2,,,,61,
  426. 2019-09-14T16:00:30.000Z,55.06178459683856,10.410849192269579,11680.556366404717,4.0,12.318832,214.02884,23,gps,0.9,1.7,1.9,44.2,,,,61,
  427. 2019-09-14T16:01:01.000Z,55.119952803133565,10.432969573897845,11678.083891100807,4.0,12.316586,214.19572,23,gps,0.8,1.2,1.5,43.9,,,,62,
  428. 2019-09-14T16:01:32.000Z,55.17815072526874,10.455079802451003,11675.222514801733,4.0,12.279281,214.2427,22,gps,0.9,1.4,1.6,43.9,,,,62,
  429. 2019-09-14T16:02:03.000Z,55.236360207687255,10.477381109167887,11669.437384771772,4.0,12.450183,214.89677,24,gps,0.9,1.3,1.6,43.9,,,,62,
  430. 2019-09-14T16:02:34.000Z,55.294749432525876,10.499879946765837,11669.603763856243,4.0,12.366091,215.29999,24,gps,1.1,1.7,2.0,43.9,,,,62,
  431. 2019-09-14T16:03:05.000Z,55.35322292267104,10.522456028746463,11668.919274770606,4.0,12.42012,215.47021,23,gps,0.8,1.2,1.5,43.6,,,,62,
  432. 2019-09-14T16:03:35.000Z,55.40982055077598,10.54429202606838,11667.352397268143,4.0,12.452038,215.63785,22,gps,0.9,1.4,1.7,43.6,,,,62,
  433. 2019-09-14T16:04:06.000Z,55.46831105123767,10.568320868007092,11665.430894995603,6.0,15.170658,217.18747,23,gps,0.9,1.6,1.9,43.6,,,,62,
  434. 2019-09-14T16:04:37.000Z,55.526631613870734,10.596285412382041,11661.81690296736,4.0,15.100411,217.29529,21,gps,0.7,1.4,1.5,43.6,,,,61,
  435. 2019-09-14T16:05:08.000Z,55.584850091613944,10.625093206414364,11664.36304645577,4.0,17.758625,218.78732,20,gps,0.9,1.4,1.7,43.2,,,,61,
  436. 2019-09-14T16:05:39.000Z,55.64213176701043,10.662671774574317,11660.80991661337,4.0,21.035793,220.15718,19,gps,0.8,1.4,1.7,43.2,,,,61,
  437. 2019-09-14T16:06:10.000Z,55.69916930395652,10.701621835804815,11654.55820746101,4.0,21.135439,219.92628,19,gps,0.7,1.3,1.5,43.2,,,,61,
  438. 2019-09-14T16:06:40.000Z,55.7543411188078,10.739317232032686,11653.255566860436,6.0,21.109648,219.53316,23,gps,1.4,1.9,2.4,43.2,,,,61,
  439. 2019-09-14T16:07:11.000Z,55.81118499535173,10.778355568399439,11654.92703785113,4.0,21.192492,219.42316,22,gps,0.9,1.3,1.6,43.2,,,,61,
  440. 2019-09-14T16:07:42.000Z,55.86795192608943,10.817676703831513,11660.94338591424,4.0,21.286669,219.01614,21,gps,0.8,1.0,1.3,42.8,,,,61,
  441. 2019-09-14T16:08:13.000Z,55.92462930399949,10.856915046205975,11660.96729012814,6.0,21.182852,218.39345,20,gps,0.8,1.2,1.4,42.8,,,,61,
  442. 2019-09-14T16:08:44.000Z,55.98105247619388,10.896064439585837,11656.470010571877,4.0,21.291527,218.16792,18,gps,0.9,1.5,1.7,42.8,,,,61,
  443. 2019-09-14T16:09:14.000Z,56.03562971580386,10.934087794214449,11650.718894552836,4.0,21.349312,217.28712,22,gps,0.8,1.3,1.5,42.8,,,,61,
  444. 2019-09-14T16:09:45.000Z,56.09180606235942,10.973334887885777,11645.150395383529,4.0,21.30114,216.71086,18,gps,0.9,1.4,1.7,42.4,,,,61,
  445. 2019-09-14T16:10:15.000Z,56.14603469835965,11.011193165802325,11630.961463250344,4.0,21.251795,216.27278,20,gps,0.9,1.3,1.6,42.4,,,,61,
  446. 2019-09-14T16:10:45.000Z,56.20025640293548,11.04908036322542,11616.029885522697,4.0,21.304495,216.53098,20,gps,0.9,1.6,1.8,42.4,,,,61,
  447. 2019-09-14T16:11:16.000Z,56.256710891971736,11.088068519852632,11494.829562853996,8.0,21.40002,217.96716,21,gps,1.4,3.1,3.4,42.4,,,,60,
  448. 2019-09-14T16:11:47.000Z,56.314035955918264,11.128073500561722,11272.776064847385,12.0,21.5706,223.81572,23,gps,1.3,3.0,3.3,42.4,,,,60,
  449. 2019-09-14T16:12:18.000Z,56.37243427088765,11.168593564507049,10955.670721490967,12.0,21.57007,226.50002,20,gps,1.6,2.4,2.9,41.9,,,,60,
  450. 2019-09-14T16:12:49.000Z,56.43126264818576,11.211116628856164,10510.385770173409,16.0,21.54643,228.40485,20,gps,1.4,2.7,3.0,41.9,,,,60,
  451. 2019-09-14T16:13:20.000Z,56.49064731445789,11.252919582779125,10239.083532684761,16.0,21.603148,230.83209,20,gps,1.5,1.8,2.4,41.9,,,,60,
  452. 2019-09-14T16:13:50.000Z,56.5485480752838,11.295078163691237,9817.199394301446,12.0,21.60356,234.29277,18,gps,1.5,1.9,2.4,41.9,,,,60,
  453. 2019-09-14T16:14:21.000Z,56.609981390060064,11.337282078316372,9559.32343667881,16.0,21.603254,236.91536,17,gps,2.0,2.4,3.1,41.4,,,,60,
  454. 2019-09-14T16:14:51.999Z,56.670721085072806,11.384077096241114,9028.689636516223,8.0,21.650782,239.26003,18,gps,1.6,2.0,2.5,41.4,,,,58,
  455. 2019-09-14T16:15:21.999Z,56.73164474891184,11.427622146086255,8902.777900177241,12.0,21.691504,241.3306,18,gps,1.5,9.4,9.5,41.4,,,,58,
  456. 2019-09-14T16:15:52.999Z,56.79396815406244,11.47216756313102,8621.279766718708,12.0,21.720003,242.97633,16,gps,1.6,2.3,2.8,41.4,,,,58,
  457. 2019-09-14T16:16:23.999Z,56.856961117086975,11.517128072834025,8193.751587666064,16.0,21.737225,245.13985,18,gps,1.5,1.5,2.1,40.9,,,,58,
  458. 2019-09-14T16:16:54.999Z,56.920465386742784,11.562867402467667,7792.676944094727,16.0,21.850815,247.26227,18,gps,1.9,3.0,3.5,40.9,,,,58,
  459. 2019-09-14T16:17:24.999Z,56.98175155437842,11.608963527568154,7392.327652031414,16.0,21.981537,243.84135,16,gps,1.4,1.8,2.3,40.9,,,,58,
  460. 2019-09-14T16:17:54.999Z,57.04206457502778,11.654562183778683,7048.488162471312,12.0,21.90811,241.2516,17,gps,1.9,2.5,3.1,40.9,,,,58,
  461. 2019-09-14T16:18:25.999Z,57.10381800956531,11.7006449072804,6685.490391351226,12.0,22.018654,239.09882,14,gps,2.1,1.9,2.8,40.4,,,,58,
  462. 2019-09-14T16:18:56.999Z,57.16469828815747,11.74722038652584,6200.70310530221,16.0,22.018568,234.96533,15,gps,1.6,1.7,2.3,40.4,,,,58,
  463. 2019-09-14T16:19:27.999Z,57.224558829731656,11.791720449420946,5959.58352308946,12.0,22.197117,230.03537,15,gps,1.2,2.4,2.7,40.4,,,,58,
  464. 2019-09-14T16:19:58.999Z,57.28332257571527,11.834638622978948,5757.038590031997,8.0,22.002178,225.15741,20,gps,1.0,4.7,4.8,40.4,,,,58,
  465. 2019-09-14T16:20:29.999Z,57.34136081033505,11.877967098082738,5491.406503603786,8.0,22.182983,222.72339,18,gps,1.3,5.7,5.8,39.8,,,,58,
  466. 2019-09-14T16:21:00.999Z,57.39730393663267,11.91925153519786,5371.525074997654,12.0,22.246572,211.8479,19,gps,1.4,5.6,5.8,39.8,,,,58,
  467. 2019-09-14T16:21:30.999Z,57.44932005447127,11.95947088323452,5011.71112031011,8.0,22.177643,203.15749,16,gps,1.2,4.6,4.7,39.8,,,,58,
  468. 2019-09-14T16:22:01.999Z,57.50061375102002,11.99839896206299,4710.598868617601,8.0,22.17565,195.92352,16,gps,2.0,6.6,6.9,39.8,,,,58,
  469. 2019-09-14T16:22:32.999Z,57.54988399445336,12.036584674388276,4231.308278881425,12.0,22.548916,189.82483,18,gps,1.2,3.1,3.4,39.8,,,,58,
  470. 2019-09-14T16:23:03.999Z,57.59667790523411,12.072169927726803,3786.5784717173783,24.0,22.18761,175.7762,14,gps,2.0,7.9,8.2,39.3,,,,58,
  471. 2019-09-14T16:23:33.999Z,57.6385372661364,12.104146002454542,3467.5027048685897,8.0,22.14153,163.69508,21,gps,1.0,4.8,4.9,39.3,,,,58,
  472. 2019-09-14T16:24:04.999Z,57.679998035026976,12.135117568569123,3406.48620211434,16.0,22.142427,157.5794,15,gps,2.1,2.9,3.6,39.3,,,,58,
  473. 2019-09-14T16:24:34.999Z,57.718288253233666,12.164801428389204,2996.635931950886,12.0,22.46088,154.57799,16,gps,0.9,1.8,2.0,39.3,,,,58,
  474. 2019-09-14T16:25:05.999Z,57.75814466979743,12.195330642232733,2926.197372149699,16.0,22.441362,150.9025,13,gps,3.4,13.6,14.0,39.3,,,,57,
  475. 2019-09-14T16:25:36.999Z,57.796246553967606,12.224810547208318,2459.2963194354693,12.0,22.303167,149.19666,21,gps,1.2,4.5,4.6,39.3,,,,57,
  476. 2019-09-14T16:26:06.999Z,57.833045239193076,12.253715392125015,2395.7650366197486,12.0,22.53049,143.26807,17,gps,1.1,5.7,5.8,38.7,,,,57,
  477. 2019-09-14T16:26:36.999Z,57.866480216091915,12.283365927138773,2080.651294101745,16.0,28.497559,139.10103,12,gps,1.3,2.0,2.3,38.7,,,,57,
  478. 2019-09-14T16:27:07.999Z,57.89082864536074,12.337814374056892,1606.5893834731048,12.0,79.49938,137.63533,16,gps,1.6,2.2,2.7,38.7,,,,57,
  479. 2019-09-14T16:27:38.999Z,57.886712497106366,12.40528018227837,1346.09114445461,12.0,122.09996,126.82902,15,gps,0.9,1.5,1.7,38.7,,,,57,
  480. 2019-09-14T16:28:08.999Z,57.860682480178724,12.43459259657113,1130.1975810768654,12.0,175.27965,105.226845,13,gps,1.8,2.0,2.7,38.7,,,,57,
  481. 2019-09-14T16:28:39.999Z,57.83250628895466,12.432835982541771,951.2802276634137,8.0,196.50029,93.30162,16,gps,1.0,1.8,2.1,38.7,,,,57,
  482. 2019-09-14T16:29:10.999Z,57.80949460910133,12.41376268035632,947.596430563849,6.0,205.05115,84.81524,20,gps,1.2,1.6,2.0,38.7,,,,57,
  483. 2019-09-14T16:29:41.999Z,57.7891285181735,12.395143197746533,949.6462586066983,6.0,206.16054,78.91145,21,gps,1.0,1.5,1.8,38.7,,,,57,
  484. 2019-09-14T16:30:12.999Z,57.76932931613048,12.37701398436831,857.4930847218598,8.0,205.95206,78.30847,20,gps,0.9,1.3,1.6,38.7,,,,56,
  485. 2019-09-14T16:30:43.999Z,57.750374511016105,12.359710484788737,726.4188196148425,8.0,205.82578,70.3543,19,gps,0.9,1.3,1.6,38.7,,,,56,
  486. 2019-09-14T16:31:14.999Z,57.73450914042043,12.345186208908284,628.4966271413472,6.0,207.007,60.881695,21,gps,0.9,1.5,1.7,38.7,,,,56,
  487. 2019-09-14T16:31:45.999Z,57.71873476070787,12.330560844437674,533.7046776498461,6.0,205.62822,64.636604,18,gps,0.9,1.1,1.4,38.7,,,,56,
  488. 2019-09-14T16:32:15.999Z,57.703551801952415,12.316635806380098,431.9745103462228,6.0,206.01802,63.232883,20,gps,0.9,1.1,1.5,38.7,,,,56,
  489. 2019-09-14T16:32:46.999Z,57.68767619133537,12.302261781856794,333.29083270060795,8.0,206.44281,63.851986,19,gps,1.1,1.1,1.5,38.7,,,,56,
  490. 2019-09-14T16:33:17.999Z,57.67148642959474,12.287920002980927,272.2191975003448,12.0,205.94862,63.322075,23,gps,0.9,1.5,1.8,38.7,,,,56,
  491. 2019-09-14T16:33:48.999Z,57.66231298022974,12.279365933198894,219.56663859110517,12.0,206.69472,18.371372,19,gps,0.9,1.1,1.4,38.7,,,,56,
  492. 2019-09-14T16:34:19.999Z,57.66112214167315,12.281690721761732,244.21550729344028,6.0,53.227585,7.268212,22,gps,0.8,1.3,1.5,38.7,,,,56,
  493. 2019-09-14T16:34:50.999Z,57.66345267307831,12.283843398134607,245.24093197247348,6.0,26.122221,11.879872,19,gps,1.1,1.4,1.8,38.7,,,,55,
  494. 2019-09-14T16:35:21.999Z,57.66662977341755,12.28676586810061,246.56863519144264,6.0,27.878756,13.559785,20,gps,1.0,1.2,1.6,38.7,,,,55,
  495. 2019-09-14T16:35:51.999Z,57.66983250125924,12.28982099214153,244.29289830253478,6.0,26.622776,8.944023,18,gps,1.0,1.2,1.5,38.7,,,,55,
  496. 2019-09-14T16:36:22.999Z,57.6699434591319,12.292560323729266,246.40256207448746,6.0,115.004974,5.51246,21,gps,1.0,1.2,1.6,38.7,,,,55,
  497. 2019-09-14T16:36:53.999Z,57.66891799355277,12.293383106601691,245.62177764637818,6.0,122.82464,3.5373702,19,gps,0.8,1.2,1.4,38.7,,,,55,
  498. 2019-09-14T16:37:24.999Z,57.66877102594478,12.294201872506276,235.69216751143486,6.0,119.68841,1.0543443,18,gps,0.9,1.2,1.5,38.7,,,,55,
  499. 2019-09-14T16:37:55.999Z,57.668766770358026,12.294342182959378,243.4797314517824,12.0,130.9511,0.17933126,18,gps,1.1,1.4,1.8,38.7,,,,55,
  500. 2019-09-14T16:38:26.999Z,57.668845353738455,12.294473803125799,243.87994205807144,12.0,44.329216,0.29023132,16,gps,0.9,1.1,1.4,38.7,,,,54,
RAW Paste Data
We use cookies for various purposes including analytics. By continuing to use Pastebin, you agree to our use of cookies as described in the Cookies Policy. OK, I Understand
 
Top